<?xml version="1.0" encoding="UTF-8" standalone="no" ?>
<gpx xmlns="http://www.topografix.com/GPX/1/1" xmlns:xsi="http://www.w3.org/2001/XMLSchema-instance" xsi:schemaLocation="http://www.topografix.com/GPX/1/1 http://www.topografix.com/GPX/1/1/gpx.xsd" version="1.1" creator="VisuGPX - https://www.visugpx.com">
  <metadata>
    <name>crete Agalops 1750m 2500m</name>
    <desc><![CDATA[description à venir 
[url][/url]
[img][/img]]]></desc>
  </metadata>
  <trk>
    <name><![CDATA[crète d'Agalops 1750m 2500m]]></name>
    <trkseg>
      <trkpt lat="42.90574" lon="0.1307">
        <ele>1689</ele>
        <time>2015-05-10T05:43:02Z</time>
      </trkpt>
      <trkpt lat="42.9057" lon="0.13068">
        <ele>1689</ele>
        <time>2015-05-10T05:43:26Z</time>
      </trkpt>
      <trkpt lat="42.90562" lon="0.13067">
        <ele>1693</ele>
        <time>2015-05-10T05:43:34Z</time>
      </trkpt>
      <trkpt lat="42.90563" lon="0.13066">
        <ele>1697</ele>
        <time>2015-05-10T05:43:37Z</time>
      </trkpt>
      <trkpt lat="42.90562" lon="0.13066">
        <ele>1700</ele>
        <time>2015-05-10T05:43:39Z</time>
      </trkpt>
      <trkpt lat="42.90562" lon="0.13065">
        <ele>1705</ele>
        <time>2015-05-10T05:43:42Z</time>
      </trkpt>
      <trkpt lat="42.90562" lon="0.13066">
        <ele>1708</ele>
        <time>2015-05-10T05:43:45Z</time>
      </trkpt>
      <trkpt lat="42.90562" lon="0.13065">
        <ele>1713</ele>
        <time>2015-05-10T05:43:49Z</time>
      </trkpt>
      <trkpt lat="42.90562" lon="0.13065">
        <ele>1714</ele>
        <time>2015-05-10T05:43:51Z</time>
      </trkpt>
      <trkpt lat="42.90562" lon="0.13065">
        <ele>1718</ele>
        <time>2015-05-10T05:43:55Z</time>
      </trkpt>
      <trkpt lat="42.90562" lon="0.13066">
        <ele>1720</ele>
        <time>2015-05-10T05:43:59Z</time>
      </trkpt>
      <trkpt lat="42.90562" lon="0.13066">
        <ele>1721</ele>
        <time>2015-05-10T05:44:01Z</time>
      </trkpt>
      <trkpt lat="42.90562" lon="0.13066">
        <ele>1725</ele>
        <time>2015-05-10T05:44:04Z</time>
      </trkpt>
      <trkpt lat="42.90563" lon="0.13066">
        <ele>1728</ele>
        <time>2015-05-10T05:44:11Z</time>
      </trkpt>
      <trkpt lat="42.90563" lon="0.13065">
        <ele>1730</ele>
        <time>2015-05-10T05:44:15Z</time>
      </trkpt>
      <trkpt lat="42.90563" lon="0.13065">
        <ele>1733</ele>
        <time>2015-05-10T05:44:23Z</time>
      </trkpt>
      <trkpt lat="42.90562" lon="0.13064">
        <ele>1736</ele>
        <time>2015-05-10T05:44:30Z</time>
      </trkpt>
      <trkpt lat="42.90563" lon="0.13064">
        <ele>1740</ele>
        <time>2015-05-10T05:44:44Z</time>
      </trkpt>
      <trkpt lat="42.90563" lon="0.13066">
        <ele>1743</ele>
        <time>2015-05-10T05:44:58Z</time>
      </trkpt>
      <trkpt lat="42.90564" lon="0.13065">
        <ele>1746</ele>
        <time>2015-05-10T05:45:19Z</time>
      </trkpt>
      <trkpt lat="42.90564" lon="0.13064">
        <ele>1747</ele>
        <time>2015-05-10T05:45:56Z</time>
      </trkpt>
      <trkpt lat="42.90566" lon="0.13066">
        <ele>1747</ele>
        <time>2015-05-10T05:46:41Z</time>
      </trkpt>
      <trkpt lat="42.90564" lon="0.13066">
        <ele>1747</ele>
        <time>2015-05-10T05:47:21Z</time>
      </trkpt>
      <trkpt lat="42.90564" lon="0.13067">
        <ele>1746</ele>
        <time>2015-05-10T05:48:09Z</time>
      </trkpt>
      <trkpt lat="42.90565" lon="0.13066">
        <ele>1747</ele>
        <time>2015-05-10T05:48:48Z</time>
      </trkpt>
      <trkpt lat="42.90565" lon="0.13068">
        <ele>1747</ele>
        <time>2015-05-10T05:49:32Z</time>
      </trkpt>
      <trkpt lat="42.90565" lon="0.13068">
        <ele>1747</ele>
        <time>2015-05-10T05:50:14Z</time>
      </trkpt>
      <trkpt lat="42.90566" lon="0.13068">
        <ele>1747</ele>
        <time>2015-05-10T05:50:53Z</time>
      </trkpt>
      <trkpt lat="42.90569" lon="0.13066">
        <ele>1748</ele>
        <time>2015-05-10T05:51:05Z</time>
      </trkpt>
      <trkpt lat="42.90568" lon="0.13067">
        <ele>1747</ele>
        <time>2015-05-10T05:51:27Z</time>
      </trkpt>
      <trkpt lat="42.90568" lon="0.13068">
        <ele>1747</ele>
        <time>2015-05-10T05:51:46Z</time>
      </trkpt>
      <trkpt lat="42.90569" lon="0.13073">
        <ele>1747</ele>
        <time>2015-05-10T05:51:56Z</time>
      </trkpt>
      <trkpt lat="42.90565" lon="0.13071">
        <ele>1748</ele>
        <time>2015-05-10T05:52:10Z</time>
      </trkpt>
      <trkpt lat="42.90565" lon="0.1307">
        <ele>1747</ele>
        <time>2015-05-10T05:52:12Z</time>
      </trkpt>
      <trkpt lat="42.90564" lon="0.13073">
        <ele>1747</ele>
        <time>2015-05-10T05:52:22Z</time>
      </trkpt>
      <trkpt lat="42.90565" lon="0.13069">
        <ele>1747</ele>
        <time>2015-05-10T05:52:25Z</time>
      </trkpt>
      <trkpt lat="42.90567" lon="0.1307">
        <ele>1747</ele>
        <time>2015-05-10T05:52:27Z</time>
      </trkpt>
      <trkpt lat="42.90567" lon="0.13068">
        <ele>1747</ele>
        <time>2015-05-10T05:52:39Z</time>
      </trkpt>
      <trkpt lat="42.90567" lon="0.13065">
        <ele>1747</ele>
        <time>2015-05-10T05:52:54Z</time>
      </trkpt>
      <trkpt lat="42.9057" lon="0.13064">
        <ele>1747</ele>
        <time>2015-05-10T05:53:11Z</time>
      </trkpt>
      <trkpt lat="42.9057" lon="0.13063">
        <ele>1747</ele>
        <time>2015-05-10T05:53:30Z</time>
      </trkpt>
      <trkpt lat="42.90572" lon="0.13063">
        <ele>1747</ele>
        <time>2015-05-10T05:53:49Z</time>
      </trkpt>
      <trkpt lat="42.90581" lon="0.13062">
        <ele>1748</ele>
        <time>2015-05-10T05:54:15Z</time>
      </trkpt>
      <trkpt lat="42.90585" lon="0.13061">
        <ele>1747</ele>
        <time>2015-05-10T05:54:39Z</time>
      </trkpt>
      <trkpt lat="42.90571" lon="0.13065">
        <ele>1748</ele>
        <time>2015-05-10T05:55:01Z</time>
      </trkpt>
      <trkpt lat="42.90572" lon="0.13062">
        <ele>1747</ele>
        <time>2015-05-10T05:55:18Z</time>
      </trkpt>
      <trkpt lat="42.90571" lon="0.13062">
        <ele>1747</ele>
        <time>2015-05-10T05:55:35Z</time>
      </trkpt>
      <trkpt lat="42.9057" lon="0.13059">
        <ele>1748</ele>
        <time>2015-05-10T05:55:50Z</time>
      </trkpt>
      <trkpt lat="42.90571" lon="0.13058">
        <ele>1748</ele>
        <time>2015-05-10T05:56:06Z</time>
      </trkpt>
      <trkpt lat="42.90569" lon="0.13058">
        <ele>1748</ele>
        <time>2015-05-10T05:56:18Z</time>
      </trkpt>
      <trkpt lat="42.90564" lon="0.1306">
        <ele>1748</ele>
        <time>2015-05-10T05:56:38Z</time>
      </trkpt>
      <trkpt lat="42.90566" lon="0.13061">
        <ele>1749</ele>
        <time>2015-05-10T05:56:56Z</time>
      </trkpt>
      <trkpt lat="42.90564" lon="0.13059">
        <ele>1748</ele>
        <time>2015-05-10T05:57:23Z</time>
      </trkpt>
      <trkpt lat="42.90564" lon="0.13063">
        <ele>1748</ele>
        <time>2015-05-10T05:57:43Z</time>
      </trkpt>
      <trkpt lat="42.90565" lon="0.13062">
        <ele>1748</ele>
        <time>2015-05-10T05:57:56Z</time>
      </trkpt>
      <trkpt lat="42.90565" lon="0.13064">
        <ele>1748</ele>
        <time>2015-05-10T05:58:09Z</time>
      </trkpt>
      <trkpt lat="42.90558" lon="0.13069">
        <ele>1748</ele>
        <time>2015-05-10T05:58:17Z</time>
      </trkpt>
      <trkpt lat="42.90563" lon="0.13104">
        <ele>1746</ele>
        <time>2015-05-10T05:58:37Z</time>
      </trkpt>
      <trkpt lat="42.90564" lon="0.13115">
        <ele>1745</ele>
        <time>2015-05-10T05:58:44Z</time>
      </trkpt>
      <trkpt lat="42.90557" lon="0.13127">
        <ele>1744</ele>
        <time>2015-05-10T05:58:58Z</time>
      </trkpt>
      <trkpt lat="42.90556" lon="0.13124">
        <ele>1745</ele>
        <time>2015-05-10T05:59:16Z</time>
      </trkpt>
      <trkpt lat="42.90557" lon="0.13122">
        <ele>1744</ele>
        <time>2015-05-10T05:59:37Z</time>
      </trkpt>
      <trkpt lat="42.90551" lon="0.13129">
        <ele>1744</ele>
        <time>2015-05-10T05:59:51Z</time>
      </trkpt>
      <trkpt lat="42.90547" lon="0.1314">
        <ele>1743</ele>
        <time>2015-05-10T06:00:03Z</time>
      </trkpt>
      <trkpt lat="42.90546" lon="0.13139">
        <ele>1743</ele>
        <time>2015-05-10T06:00:27Z</time>
      </trkpt>
      <trkpt lat="42.90548" lon="0.13139">
        <ele>1744</ele>
        <time>2015-05-10T06:00:46Z</time>
      </trkpt>
      <trkpt lat="42.90548" lon="0.13138">
        <ele>1743</ele>
        <time>2015-05-10T06:01:06Z</time>
      </trkpt>
      <trkpt lat="42.90543" lon="0.13143">
        <ele>1743</ele>
        <time>2015-05-10T06:01:21Z</time>
      </trkpt>
      <trkpt lat="42.90539" lon="0.13151">
        <ele>1743</ele>
        <time>2015-05-10T06:01:26Z</time>
      </trkpt>
      <trkpt lat="42.90535" lon="0.13168">
        <ele>1743</ele>
        <time>2015-05-10T06:01:40Z</time>
      </trkpt>
      <trkpt lat="42.90532" lon="0.13175">
        <ele>1743</ele>
        <time>2015-05-10T06:01:47Z</time>
      </trkpt>
      <trkpt lat="42.90529" lon="0.13179">
        <ele>1743</ele>
        <time>2015-05-10T06:01:51Z</time>
      </trkpt>
      <trkpt lat="42.90527" lon="0.1318">
        <ele>1743</ele>
        <time>2015-05-10T06:01:53Z</time>
      </trkpt>
      <trkpt lat="42.90526" lon="0.1318">
        <ele>1743</ele>
        <time>2015-05-10T06:01:55Z</time>
      </trkpt>
      <trkpt lat="42.90513" lon="0.13192">
        <ele>1743</ele>
        <time>2015-05-10T06:02:08Z</time>
      </trkpt>
      <trkpt lat="42.90502" lon="0.13199">
        <ele>1744</ele>
        <time>2015-05-10T06:02:20Z</time>
      </trkpt>
      <trkpt lat="42.90499" lon="0.13203">
        <ele>1745</ele>
        <time>2015-05-10T06:02:33Z</time>
      </trkpt>
      <trkpt lat="42.90498" lon="0.13204">
        <ele>1745</ele>
        <time>2015-05-10T06:02:35Z</time>
      </trkpt>
      <trkpt lat="42.9049" lon="0.13217">
        <ele>1747</ele>
        <time>2015-05-10T06:02:48Z</time>
      </trkpt>
      <trkpt lat="42.90483" lon="0.13225">
        <ele>1750</ele>
        <time>2015-05-10T06:03:03Z</time>
      </trkpt>
      <trkpt lat="42.90475" lon="0.13218">
        <ele>1753</ele>
        <time>2015-05-10T06:03:17Z</time>
      </trkpt>
      <trkpt lat="42.90471" lon="0.13214">
        <ele>1754</ele>
        <time>2015-05-10T06:03:23Z</time>
      </trkpt>
      <trkpt lat="42.90466" lon="0.1321">
        <ele>1755</ele>
        <time>2015-05-10T06:03:30Z</time>
      </trkpt>
      <trkpt lat="42.90461" lon="0.1321">
        <ele>1758</ele>
        <time>2015-05-10T06:03:48Z</time>
      </trkpt>
      <trkpt lat="42.90458" lon="0.13235">
        <ele>1761</ele>
        <time>2015-05-10T06:04:05Z</time>
      </trkpt>
      <trkpt lat="42.90454" lon="0.13249">
        <ele>1764</ele>
        <time>2015-05-10T06:04:20Z</time>
      </trkpt>
      <trkpt lat="42.90452" lon="0.13261">
        <ele>1766</ele>
        <time>2015-05-10T06:04:36Z</time>
      </trkpt>
      <trkpt lat="42.90448" lon="0.13273">
        <ele>1769</ele>
        <time>2015-05-10T06:04:51Z</time>
      </trkpt>
      <trkpt lat="42.90444" lon="0.13262">
        <ele>1772</ele>
        <time>2015-05-10T06:05:04Z</time>
      </trkpt>
      <trkpt lat="42.9044" lon="0.13249">
        <ele>1774</ele>
        <time>2015-05-10T06:05:19Z</time>
      </trkpt>
      <trkpt lat="42.90438" lon="0.1326">
        <ele>1777</ele>
        <time>2015-05-10T06:05:36Z</time>
      </trkpt>
      <trkpt lat="42.90433" lon="0.13278">
        <ele>1779</ele>
        <time>2015-05-10T06:05:56Z</time>
      </trkpt>
      <trkpt lat="42.90431" lon="0.13286">
        <ele>1782</ele>
        <time>2015-05-10T06:06:10Z</time>
      </trkpt>
      <trkpt lat="42.90427" lon="0.13269">
        <ele>1784</ele>
        <time>2015-05-10T06:06:24Z</time>
      </trkpt>
      <trkpt lat="42.90424" lon="0.13268">
        <ele>1786</ele>
        <time>2015-05-10T06:06:41Z</time>
      </trkpt>
      <trkpt lat="42.90421" lon="0.13286">
        <ele>1789</ele>
        <time>2015-05-10T06:06:59Z</time>
      </trkpt>
      <trkpt lat="42.90417" lon="0.133">
        <ele>1791</ele>
        <time>2015-05-10T06:07:13Z</time>
      </trkpt>
      <trkpt lat="42.90413" lon="0.13318">
        <ele>1793</ele>
        <time>2015-05-10T06:07:31Z</time>
      </trkpt>
      <trkpt lat="42.90411" lon="0.13312">
        <ele>1794</ele>
        <time>2015-05-10T06:07:44Z</time>
      </trkpt>
      <trkpt lat="42.90407" lon="0.13296">
        <ele>1796</ele>
        <time>2015-05-10T06:08:00Z</time>
      </trkpt>
      <trkpt lat="42.90405" lon="0.13291">
        <ele>1798</ele>
        <time>2015-05-10T06:08:06Z</time>
      </trkpt>
      <trkpt lat="42.90399" lon="0.13281">
        <ele>1800</ele>
        <time>2015-05-10T06:08:19Z</time>
      </trkpt>
      <trkpt lat="42.90397" lon="0.1329">
        <ele>1801</ele>
        <time>2015-05-10T06:08:33Z</time>
      </trkpt>
      <trkpt lat="42.90394" lon="0.13303">
        <ele>1804</ele>
        <time>2015-05-10T06:08:46Z</time>
      </trkpt>
      <trkpt lat="42.90389" lon="0.13315">
        <ele>1806</ele>
        <time>2015-05-10T06:09:01Z</time>
      </trkpt>
      <trkpt lat="42.90385" lon="0.13327">
        <ele>1809</ele>
        <time>2015-05-10T06:09:14Z</time>
      </trkpt>
      <trkpt lat="42.9038" lon="0.13341">
        <ele>1813</ele>
        <time>2015-05-10T06:09:32Z</time>
      </trkpt>
      <trkpt lat="42.90374" lon="0.13352">
        <ele>1815</ele>
        <time>2015-05-10T06:09:46Z</time>
      </trkpt>
      <trkpt lat="42.90373" lon="0.13344">
        <ele>1816</ele>
        <time>2015-05-10T06:09:57Z</time>
      </trkpt>
      <trkpt lat="42.90372" lon="0.13348">
        <ele>1817</ele>
        <time>2015-05-10T06:10:06Z</time>
      </trkpt>
      <trkpt lat="42.90367" lon="0.13361">
        <ele>1819</ele>
        <time>2015-05-10T06:10:22Z</time>
      </trkpt>
      <trkpt lat="42.9036" lon="0.13375">
        <ele>1821</ele>
        <time>2015-05-10T06:10:36Z</time>
      </trkpt>
      <trkpt lat="42.90352" lon="0.13389">
        <ele>1824</ele>
        <time>2015-05-10T06:10:51Z</time>
      </trkpt>
      <trkpt lat="42.90346" lon="0.13397">
        <ele>1827</ele>
        <time>2015-05-10T06:11:06Z</time>
      </trkpt>
      <trkpt lat="42.9034" lon="0.13407">
        <ele>1829</ele>
        <time>2015-05-10T06:11:20Z</time>
      </trkpt>
      <trkpt lat="42.90341" lon="0.13417">
        <ele>1829</ele>
        <time>2015-05-10T06:11:34Z</time>
      </trkpt>
      <trkpt lat="42.90335" lon="0.13428">
        <ele>1831</ele>
        <time>2015-05-10T06:11:49Z</time>
      </trkpt>
      <trkpt lat="42.90329" lon="0.13439">
        <ele>1834</ele>
        <time>2015-05-10T06:12:03Z</time>
      </trkpt>
      <trkpt lat="42.90327" lon="0.13447">
        <ele>1836</ele>
        <time>2015-05-10T06:12:20Z</time>
      </trkpt>
      <trkpt lat="42.90319" lon="0.13455">
        <ele>1837</ele>
        <time>2015-05-10T06:12:32Z</time>
      </trkpt>
      <trkpt lat="42.9031" lon="0.13463">
        <ele>1841</ele>
        <time>2015-05-10T06:12:49Z</time>
      </trkpt>
      <trkpt lat="42.90301" lon="0.13473">
        <ele>1842</ele>
        <time>2015-05-10T06:13:04Z</time>
      </trkpt>
      <trkpt lat="42.90292" lon="0.13484">
        <ele>1844</ele>
        <time>2015-05-10T06:13:19Z</time>
      </trkpt>
      <trkpt lat="42.90286" lon="0.135">
        <ele>1845</ele>
        <time>2015-05-10T06:13:34Z</time>
      </trkpt>
      <trkpt lat="42.90278" lon="0.13513">
        <ele>1848</ele>
        <time>2015-05-10T06:13:50Z</time>
      </trkpt>
      <trkpt lat="42.90274" lon="0.13526">
        <ele>1850</ele>
        <time>2015-05-10T06:14:05Z</time>
      </trkpt>
      <trkpt lat="42.90275" lon="0.13526">
        <ele>1849</ele>
        <time>2015-05-10T06:14:23Z</time>
      </trkpt>
      <trkpt lat="42.90274" lon="0.13526">
        <ele>1850</ele>
        <time>2015-05-10T06:14:43Z</time>
      </trkpt>
      <trkpt lat="42.90274" lon="0.13525">
        <ele>1851</ele>
        <time>2015-05-10T06:14:46Z</time>
      </trkpt>
      <trkpt lat="42.90277" lon="0.13546">
        <ele>1852</ele>
        <time>2015-05-10T06:15:00Z</time>
      </trkpt>
      <trkpt lat="42.90282" lon="0.13568">
        <ele>1853</ele>
        <time>2015-05-10T06:15:14Z</time>
      </trkpt>
      <trkpt lat="42.90275" lon="0.13564">
        <ele>1854</ele>
        <time>2015-05-10T06:15:25Z</time>
      </trkpt>
      <trkpt lat="42.90274" lon="0.13563">
        <ele>1855</ele>
        <time>2015-05-10T06:15:38Z</time>
      </trkpt>
      <trkpt lat="42.90274" lon="0.13567">
        <ele>1855</ele>
        <time>2015-05-10T06:15:53Z</time>
      </trkpt>
      <trkpt lat="42.90273" lon="0.13569">
        <ele>1855</ele>
        <time>2015-05-10T06:16:12Z</time>
      </trkpt>
      <trkpt lat="42.90275" lon="0.1357">
        <ele>1855</ele>
        <time>2015-05-10T06:16:32Z</time>
      </trkpt>
      <trkpt lat="42.90272" lon="0.1358">
        <ele>1857</ele>
        <time>2015-05-10T06:16:47Z</time>
      </trkpt>
      <trkpt lat="42.90267" lon="0.13583">
        <ele>1861</ele>
        <time>2015-05-10T06:16:59Z</time>
      </trkpt>
      <trkpt lat="42.90263" lon="0.136">
        <ele>1863</ele>
        <time>2015-05-10T06:17:16Z</time>
      </trkpt>
      <trkpt lat="42.90259" lon="0.13616">
        <ele>1865</ele>
        <time>2015-05-10T06:17:30Z</time>
      </trkpt>
      <trkpt lat="42.90256" lon="0.13633">
        <ele>1867</ele>
        <time>2015-05-10T06:17:47Z</time>
      </trkpt>
      <trkpt lat="42.90254" lon="0.13651">
        <ele>1869</ele>
        <time>2015-05-10T06:18:03Z</time>
      </trkpt>
      <trkpt lat="42.90259" lon="0.13657">
        <ele>1871</ele>
        <time>2015-05-10T06:18:18Z</time>
      </trkpt>
      <trkpt lat="42.90257" lon="0.13661">
        <ele>1873</ele>
        <time>2015-05-10T06:18:29Z</time>
      </trkpt>
      <trkpt lat="42.90258" lon="0.13663">
        <ele>1873</ele>
        <time>2015-05-10T06:18:46Z</time>
      </trkpt>
      <trkpt lat="42.90259" lon="0.13669">
        <ele>1873</ele>
        <time>2015-05-10T06:19:01Z</time>
      </trkpt>
      <trkpt lat="42.90259" lon="0.13679">
        <ele>1874</ele>
        <time>2015-05-10T06:19:16Z</time>
      </trkpt>
      <trkpt lat="42.90254" lon="0.13671">
        <ele>1874</ele>
        <time>2015-05-10T06:19:40Z</time>
      </trkpt>
      <trkpt lat="42.90258" lon="0.13675">
        <ele>1875</ele>
        <time>2015-05-10T06:19:57Z</time>
      </trkpt>
      <trkpt lat="42.90255" lon="0.13696">
        <ele>1876</ele>
        <time>2015-05-10T06:20:11Z</time>
      </trkpt>
      <trkpt lat="42.90253" lon="0.13715">
        <ele>1879</ele>
        <time>2015-05-10T06:20:26Z</time>
      </trkpt>
      <trkpt lat="42.90253" lon="0.13724">
        <ele>1880</ele>
        <time>2015-05-10T06:20:35Z</time>
      </trkpt>
      <trkpt lat="42.90258" lon="0.13736">
        <ele>1882</ele>
        <time>2015-05-10T06:20:49Z</time>
      </trkpt>
      <trkpt lat="42.90261" lon="0.1375">
        <ele>1884</ele>
        <time>2015-05-10T06:21:07Z</time>
      </trkpt>
      <trkpt lat="42.90263" lon="0.13767">
        <ele>1886</ele>
        <time>2015-05-10T06:21:22Z</time>
      </trkpt>
      <trkpt lat="42.90265" lon="0.13785">
        <ele>1888</ele>
        <time>2015-05-10T06:21:38Z</time>
      </trkpt>
      <trkpt lat="42.90268" lon="0.1379">
        <ele>1889</ele>
        <time>2015-05-10T06:21:53Z</time>
      </trkpt>
      <trkpt lat="42.90265" lon="0.13812">
        <ele>1891</ele>
        <time>2015-05-10T06:22:09Z</time>
      </trkpt>
      <trkpt lat="42.90264" lon="0.13817">
        <ele>1892</ele>
        <time>2015-05-10T06:22:17Z</time>
      </trkpt>
      <trkpt lat="42.90264" lon="0.13834">
        <ele>1893</ele>
        <time>2015-05-10T06:22:32Z</time>
      </trkpt>
      <trkpt lat="42.90262" lon="0.13846">
        <ele>1895</ele>
        <time>2015-05-10T06:22:46Z</time>
      </trkpt>
      <trkpt lat="42.90255" lon="0.13863">
        <ele>1898</ele>
        <time>2015-05-10T06:23:03Z</time>
      </trkpt>
      <trkpt lat="42.90247" lon="0.13876">
        <ele>1900</ele>
        <time>2015-05-10T06:23:19Z</time>
      </trkpt>
      <trkpt lat="42.90243" lon="0.13881">
        <ele>1903</ele>
        <time>2015-05-10T06:23:31Z</time>
      </trkpt>
      <trkpt lat="42.90235" lon="0.13896">
        <ele>1904</ele>
        <time>2015-05-10T06:23:47Z</time>
      </trkpt>
      <trkpt lat="42.90227" lon="0.13909">
        <ele>1905</ele>
        <time>2015-05-10T06:24:02Z</time>
      </trkpt>
      <trkpt lat="42.90224" lon="0.1392">
        <ele>1907</ele>
        <time>2015-05-10T06:24:11Z</time>
      </trkpt>
      <trkpt lat="42.90216" lon="0.13937">
        <ele>1909</ele>
        <time>2015-05-10T06:24:29Z</time>
      </trkpt>
      <trkpt lat="42.90211" lon="0.13946">
        <ele>1911</ele>
        <time>2015-05-10T06:24:46Z</time>
      </trkpt>
      <trkpt lat="42.90208" lon="0.13946">
        <ele>1911</ele>
        <time>2015-05-10T06:25:07Z</time>
      </trkpt>
      <trkpt lat="42.90206" lon="0.13955">
        <ele>1912</ele>
        <time>2015-05-10T06:25:32Z</time>
      </trkpt>
      <trkpt lat="42.90198" lon="0.13963">
        <ele>1913</ele>
        <time>2015-05-10T06:25:43Z</time>
      </trkpt>
      <trkpt lat="42.90189" lon="0.13973">
        <ele>1916</ele>
        <time>2015-05-10T06:25:59Z</time>
      </trkpt>
      <trkpt lat="42.90183" lon="0.13984">
        <ele>1918</ele>
        <time>2015-05-10T06:26:15Z</time>
      </trkpt>
      <trkpt lat="42.90178" lon="0.13991">
        <ele>1919</ele>
        <time>2015-05-10T06:26:31Z</time>
      </trkpt>
      <trkpt lat="42.90177" lon="0.13981">
        <ele>1921</ele>
        <time>2015-05-10T06:26:48Z</time>
      </trkpt>
      <trkpt lat="42.90174" lon="0.13968">
        <ele>1923</ele>
        <time>2015-05-10T06:27:06Z</time>
      </trkpt>
      <trkpt lat="42.90173" lon="0.13958">
        <ele>1925</ele>
        <time>2015-05-10T06:27:15Z</time>
      </trkpt>
      <trkpt lat="42.9017" lon="0.13948">
        <ele>1926</ele>
        <time>2015-05-10T06:27:29Z</time>
      </trkpt>
      <trkpt lat="42.9017" lon="0.13958">
        <ele>1928</ele>
        <time>2015-05-10T06:27:45Z</time>
      </trkpt>
      <trkpt lat="42.90168" lon="0.13972">
        <ele>1930</ele>
        <time>2015-05-10T06:28:00Z</time>
      </trkpt>
      <trkpt lat="42.90162" lon="0.13981">
        <ele>1932</ele>
        <time>2015-05-10T06:28:15Z</time>
      </trkpt>
      <trkpt lat="42.90157" lon="0.13974">
        <ele>1934</ele>
        <time>2015-05-10T06:28:32Z</time>
      </trkpt>
      <trkpt lat="42.90155" lon="0.13967">
        <ele>1937</ele>
        <time>2015-05-10T06:28:46Z</time>
      </trkpt>
      <trkpt lat="42.90153" lon="0.13956">
        <ele>1939</ele>
        <time>2015-05-10T06:29:02Z</time>
      </trkpt>
      <trkpt lat="42.90149" lon="0.13965">
        <ele>1941</ele>
        <time>2015-05-10T06:29:20Z</time>
      </trkpt>
      <trkpt lat="42.90143" lon="0.13978">
        <ele>1942</ele>
        <time>2015-05-10T06:29:35Z</time>
      </trkpt>
      <trkpt lat="42.90142" lon="0.13995">
        <ele>1942</ele>
        <time>2015-05-10T06:29:50Z</time>
      </trkpt>
      <trkpt lat="42.90138" lon="0.14008">
        <ele>1944</ele>
        <time>2015-05-10T06:30:05Z</time>
      </trkpt>
      <trkpt lat="42.90132" lon="0.14018">
        <ele>1946</ele>
        <time>2015-05-10T06:30:21Z</time>
      </trkpt>
      <trkpt lat="42.90126" lon="0.1403">
        <ele>1948</ele>
        <time>2015-05-10T06:30:35Z</time>
      </trkpt>
      <trkpt lat="42.90119" lon="0.14044">
        <ele>1951</ele>
        <time>2015-05-10T06:30:54Z</time>
      </trkpt>
      <trkpt lat="42.90117" lon="0.14036">
        <ele>1951</ele>
        <time>2015-05-10T06:31:08Z</time>
      </trkpt>
      <trkpt lat="42.90117" lon="0.14027">
        <ele>1954</ele>
        <time>2015-05-10T06:31:22Z</time>
      </trkpt>
      <trkpt lat="42.90117" lon="0.14019">
        <ele>1955</ele>
        <time>2015-05-10T06:31:33Z</time>
      </trkpt>
      <trkpt lat="42.90115" lon="0.14027">
        <ele>1956</ele>
        <time>2015-05-10T06:31:47Z</time>
      </trkpt>
      <trkpt lat="42.90108" lon="0.14039">
        <ele>1958</ele>
        <time>2015-05-10T06:32:03Z</time>
      </trkpt>
      <trkpt lat="42.90103" lon="0.14053">
        <ele>1961</ele>
        <time>2015-05-10T06:32:20Z</time>
      </trkpt>
      <trkpt lat="42.90097" lon="0.14063">
        <ele>1963</ele>
        <time>2015-05-10T06:32:33Z</time>
      </trkpt>
      <trkpt lat="42.90094" lon="0.14077">
        <ele>1964</ele>
        <time>2015-05-10T06:32:49Z</time>
      </trkpt>
      <trkpt lat="42.90087" lon="0.14088">
        <ele>1966</ele>
        <time>2015-05-10T06:33:01Z</time>
      </trkpt>
      <trkpt lat="42.90074" lon="0.14098">
        <ele>1967</ele>
        <time>2015-05-10T06:33:17Z</time>
      </trkpt>
      <trkpt lat="42.90067" lon="0.14111">
        <ele>1969</ele>
        <time>2015-05-10T06:33:33Z</time>
      </trkpt>
      <trkpt lat="42.90066" lon="0.14113">
        <ele>1970</ele>
        <time>2015-05-10T06:33:36Z</time>
      </trkpt>
      <trkpt lat="42.90059" lon="0.1412">
        <ele>1972</ele>
        <time>2015-05-10T06:33:47Z</time>
      </trkpt>
      <trkpt lat="42.90045" lon="0.14128">
        <ele>1974</ele>
        <time>2015-05-10T06:34:03Z</time>
      </trkpt>
      <trkpt lat="42.90039" lon="0.14139">
        <ele>1976</ele>
        <time>2015-05-10T06:34:17Z</time>
      </trkpt>
      <trkpt lat="42.90039" lon="0.14152">
        <ele>1979</ele>
        <time>2015-05-10T06:34:30Z</time>
      </trkpt>
      <trkpt lat="42.90026" lon="0.14155">
        <ele>1981</ele>
        <time>2015-05-10T06:34:44Z</time>
      </trkpt>
      <trkpt lat="42.90013" lon="0.14155">
        <ele>1984</ele>
        <time>2015-05-10T06:35:00Z</time>
      </trkpt>
      <trkpt lat="42.90003" lon="0.14155">
        <ele>1985</ele>
        <time>2015-05-10T06:35:10Z</time>
      </trkpt>
      <trkpt lat="42.89991" lon="0.14155">
        <ele>1988</ele>
        <time>2015-05-10T06:35:23Z</time>
      </trkpt>
      <trkpt lat="42.89991" lon="0.14155">
        <ele>1988</ele>
        <time>2015-05-10T06:35:24Z</time>
      </trkpt>
      <trkpt lat="42.89983" lon="0.14162">
        <ele>1990</ele>
        <time>2015-05-10T06:35:37Z</time>
      </trkpt>
      <trkpt lat="42.8997" lon="0.14175">
        <ele>1991</ele>
        <time>2015-05-10T06:35:52Z</time>
      </trkpt>
      <trkpt lat="42.89955" lon="0.14183">
        <ele>1992</ele>
        <time>2015-05-10T06:36:06Z</time>
      </trkpt>
      <trkpt lat="42.89947" lon="0.14193">
        <ele>1993</ele>
        <time>2015-05-10T06:36:21Z</time>
      </trkpt>
      <trkpt lat="42.89938" lon="0.1421">
        <ele>1996</ele>
        <time>2015-05-10T06:36:37Z</time>
      </trkpt>
      <trkpt lat="42.89937" lon="0.14212">
        <ele>1997</ele>
        <time>2015-05-10T06:36:39Z</time>
      </trkpt>
      <trkpt lat="42.89927" lon="0.14223">
        <ele>1998</ele>
        <time>2015-05-10T06:36:55Z</time>
      </trkpt>
      <trkpt lat="42.89912" lon="0.14233">
        <ele>2001</ele>
        <time>2015-05-10T06:37:12Z</time>
      </trkpt>
      <trkpt lat="42.89912" lon="0.14234">
        <ele>2001</ele>
        <time>2015-05-10T06:37:13Z</time>
      </trkpt>
      <trkpt lat="42.89903" lon="0.14239">
        <ele>2002</ele>
        <time>2015-05-10T06:37:24Z</time>
      </trkpt>
      <trkpt lat="42.89891" lon="0.14244">
        <ele>2004</ele>
        <time>2015-05-10T06:37:37Z</time>
      </trkpt>
      <trkpt lat="42.89883" lon="0.14245">
        <ele>2005</ele>
        <time>2015-05-10T06:37:45Z</time>
      </trkpt>
      <trkpt lat="42.89875" lon="0.14243">
        <ele>2005</ele>
        <time>2015-05-10T06:38:01Z</time>
      </trkpt>
      <trkpt lat="42.89866" lon="0.14238">
        <ele>2007</ele>
        <time>2015-05-10T06:38:19Z</time>
      </trkpt>
      <trkpt lat="42.89857" lon="0.14242">
        <ele>2010</ele>
        <time>2015-05-10T06:38:34Z</time>
      </trkpt>
      <trkpt lat="42.89851" lon="0.14256">
        <ele>2011</ele>
        <time>2015-05-10T06:38:49Z</time>
      </trkpt>
      <trkpt lat="42.89843" lon="0.1427">
        <ele>2014</ele>
        <time>2015-05-10T06:39:05Z</time>
      </trkpt>
      <trkpt lat="42.89837" lon="0.14282">
        <ele>2015</ele>
        <time>2015-05-10T06:39:19Z</time>
      </trkpt>
      <trkpt lat="42.89829" lon="0.14293">
        <ele>2017</ele>
        <time>2015-05-10T06:39:34Z</time>
      </trkpt>
      <trkpt lat="42.89817" lon="0.143">
        <ele>2019</ele>
        <time>2015-05-10T06:39:47Z</time>
      </trkpt>
      <trkpt lat="42.89804" lon="0.14305">
        <ele>2021</ele>
        <time>2015-05-10T06:40:01Z</time>
      </trkpt>
      <trkpt lat="42.89806" lon="0.1431">
        <ele>2021</ele>
        <time>2015-05-10T06:40:20Z</time>
      </trkpt>
      <trkpt lat="42.89802" lon="0.14312">
        <ele>2022</ele>
        <time>2015-05-10T06:40:41Z</time>
      </trkpt>
      <trkpt lat="42.89789" lon="0.14317">
        <ele>2023</ele>
        <time>2015-05-10T06:40:56Z</time>
      </trkpt>
      <trkpt lat="42.89777" lon="0.14316">
        <ele>2026</ele>
        <time>2015-05-10T06:41:12Z</time>
      </trkpt>
      <trkpt lat="42.89765" lon="0.14319">
        <ele>2028</ele>
        <time>2015-05-10T06:41:26Z</time>
      </trkpt>
      <trkpt lat="42.89754" lon="0.1432">
        <ele>2030</ele>
        <time>2015-05-10T06:41:42Z</time>
      </trkpt>
      <trkpt lat="42.89742" lon="0.14325">
        <ele>2033</ele>
        <time>2015-05-10T06:41:59Z</time>
      </trkpt>
      <trkpt lat="42.89735" lon="0.1433">
        <ele>2035</ele>
        <time>2015-05-10T06:42:12Z</time>
      </trkpt>
      <trkpt lat="42.89732" lon="0.14329">
        <ele>2035</ele>
        <time>2015-05-10T06:42:21Z</time>
      </trkpt>
      <trkpt lat="42.89731" lon="0.14329">
        <ele>2037</ele>
        <time>2015-05-10T06:42:22Z</time>
      </trkpt>
      <trkpt lat="42.89746" lon="0.14348">
        <ele>2036</ele>
        <time>2015-05-10T06:42:42Z</time>
      </trkpt>
      <trkpt lat="42.89739" lon="0.14312">
        <ele>2037</ele>
        <time>2015-05-10T06:42:57Z</time>
      </trkpt>
      <trkpt lat="42.89741" lon="0.14309">
        <ele>2036</ele>
        <time>2015-05-10T06:43:20Z</time>
      </trkpt>
      <trkpt lat="42.8974" lon="0.14313">
        <ele>2036</ele>
        <time>2015-05-10T06:43:40Z</time>
      </trkpt>
      <trkpt lat="42.8973" lon="0.14322">
        <ele>2039</ele>
        <time>2015-05-10T06:43:53Z</time>
      </trkpt>
      <trkpt lat="42.8972" lon="0.14333">
        <ele>2041</ele>
        <time>2015-05-10T06:44:08Z</time>
      </trkpt>
      <trkpt lat="42.89712" lon="0.14343">
        <ele>2042</ele>
        <time>2015-05-10T06:44:22Z</time>
      </trkpt>
      <trkpt lat="42.89702" lon="0.14348">
        <ele>2044</ele>
        <time>2015-05-10T06:44:32Z</time>
      </trkpt>
      <trkpt lat="42.89699" lon="0.14351">
        <ele>2046</ele>
        <time>2015-05-10T06:44:47Z</time>
      </trkpt>
      <trkpt lat="42.89687" lon="0.14345">
        <ele>2048</ele>
        <time>2015-05-10T06:45:03Z</time>
      </trkpt>
      <trkpt lat="42.89687" lon="0.14345">
        <ele>2049</ele>
        <time>2015-05-10T06:45:05Z</time>
      </trkpt>
      <trkpt lat="42.89681" lon="0.14353">
        <ele>2051</ele>
        <time>2015-05-10T06:45:20Z</time>
      </trkpt>
      <trkpt lat="42.89671" lon="0.1436">
        <ele>2053</ele>
        <time>2015-05-10T06:45:33Z</time>
      </trkpt>
      <trkpt lat="42.89662" lon="0.1438">
        <ele>2054</ele>
        <time>2015-05-10T06:45:49Z</time>
      </trkpt>
      <trkpt lat="42.89653" lon="0.1439">
        <ele>2057</ele>
        <time>2015-05-10T06:46:03Z</time>
      </trkpt>
      <trkpt lat="42.89648" lon="0.14401">
        <ele>2059</ele>
        <time>2015-05-10T06:46:17Z</time>
      </trkpt>
      <trkpt lat="42.89637" lon="0.14412">
        <ele>2062</ele>
        <time>2015-05-10T06:46:33Z</time>
      </trkpt>
      <trkpt lat="42.89634" lon="0.14419">
        <ele>2063</ele>
        <time>2015-05-10T06:46:41Z</time>
      </trkpt>
      <trkpt lat="42.89625" lon="0.14425">
        <ele>2066</ele>
        <time>2015-05-10T06:46:57Z</time>
      </trkpt>
      <trkpt lat="42.89625" lon="0.14439">
        <ele>2069</ele>
        <time>2015-05-10T06:47:10Z</time>
      </trkpt>
      <trkpt lat="42.89617" lon="0.14448">
        <ele>2071</ele>
        <time>2015-05-10T06:47:25Z</time>
      </trkpt>
      <trkpt lat="42.89607" lon="0.1445">
        <ele>2073</ele>
        <time>2015-05-10T06:47:40Z</time>
      </trkpt>
      <trkpt lat="42.89594" lon="0.14448">
        <ele>2075</ele>
        <time>2015-05-10T06:47:55Z</time>
      </trkpt>
      <trkpt lat="42.89589" lon="0.14446">
        <ele>2076</ele>
        <time>2015-05-10T06:48:00Z</time>
      </trkpt>
      <trkpt lat="42.89574" lon="0.14438">
        <ele>2078</ele>
        <time>2015-05-10T06:48:17Z</time>
      </trkpt>
      <trkpt lat="42.89567" lon="0.14436">
        <ele>2080</ele>
        <time>2015-05-10T06:48:26Z</time>
      </trkpt>
      <trkpt lat="42.89555" lon="0.14433">
        <ele>2083</ele>
        <time>2015-05-10T06:48:42Z</time>
      </trkpt>
      <trkpt lat="42.89546" lon="0.14433">
        <ele>2086</ele>
        <time>2015-05-10T06:48:56Z</time>
      </trkpt>
      <trkpt lat="42.89538" lon="0.14438">
        <ele>2089</ele>
        <time>2015-05-10T06:49:12Z</time>
      </trkpt>
      <trkpt lat="42.89528" lon="0.14441">
        <ele>2092</ele>
        <time>2015-05-10T06:49:24Z</time>
      </trkpt>
      <trkpt lat="42.89521" lon="0.14449">
        <ele>2095</ele>
        <time>2015-05-10T06:49:39Z</time>
      </trkpt>
      <trkpt lat="42.89514" lon="0.14458">
        <ele>2096</ele>
        <time>2015-05-10T06:49:52Z</time>
      </trkpt>
      <trkpt lat="42.8951" lon="0.14464">
        <ele>2099</ele>
        <time>2015-05-10T06:50:02Z</time>
      </trkpt>
      <trkpt lat="42.89508" lon="0.14465">
        <ele>2102</ele>
        <time>2015-05-10T06:50:14Z</time>
      </trkpt>
      <trkpt lat="42.89498" lon="0.14455">
        <ele>2101</ele>
        <time>2015-05-10T06:50:38Z</time>
      </trkpt>
      <trkpt lat="42.89491" lon="0.14451">
        <ele>2103</ele>
        <time>2015-05-10T06:50:54Z</time>
      </trkpt>
      <trkpt lat="42.89487" lon="0.14443">
        <ele>2105</ele>
        <time>2015-05-10T06:51:05Z</time>
      </trkpt>
      <trkpt lat="42.89485" lon="0.14441">
        <ele>2107</ele>
        <time>2015-05-10T06:51:11Z</time>
      </trkpt>
      <trkpt lat="42.89483" lon="0.14446">
        <ele>2108</ele>
        <time>2015-05-10T06:51:17Z</time>
      </trkpt>
      <trkpt lat="42.89477" lon="0.14455">
        <ele>2110</ele>
        <time>2015-05-10T06:51:28Z</time>
      </trkpt>
      <trkpt lat="42.89472" lon="0.14463">
        <ele>2113</ele>
        <time>2015-05-10T06:51:42Z</time>
      </trkpt>
      <trkpt lat="42.89466" lon="0.14463">
        <ele>2114</ele>
        <time>2015-05-10T06:51:58Z</time>
      </trkpt>
      <trkpt lat="42.89464" lon="0.14462">
        <ele>2115</ele>
        <time>2015-05-10T06:52:02Z</time>
      </trkpt>
      <trkpt lat="42.8945" lon="0.14445">
        <ele>2116</ele>
        <time>2015-05-10T06:52:19Z</time>
      </trkpt>
      <trkpt lat="42.89444" lon="0.1443">
        <ele>2119</ele>
        <time>2015-05-10T06:52:32Z</time>
      </trkpt>
      <trkpt lat="42.89448" lon="0.14441">
        <ele>2121</ele>
        <time>2015-05-10T06:52:45Z</time>
      </trkpt>
      <trkpt lat="42.89443" lon="0.14453">
        <ele>2123</ele>
        <time>2015-05-10T06:52:58Z</time>
      </trkpt>
      <trkpt lat="42.89438" lon="0.14462">
        <ele>2126</ele>
        <time>2015-05-10T06:53:15Z</time>
      </trkpt>
      <trkpt lat="42.89431" lon="0.14466">
        <ele>2128</ele>
        <time>2015-05-10T06:53:30Z</time>
      </trkpt>
      <trkpt lat="42.89422" lon="0.14451">
        <ele>2129</ele>
        <time>2015-05-10T06:53:45Z</time>
      </trkpt>
      <trkpt lat="42.89416" lon="0.14438">
        <ele>2132</ele>
        <time>2015-05-10T06:54:00Z</time>
      </trkpt>
      <trkpt lat="42.8941" lon="0.14432">
        <ele>2135</ele>
        <time>2015-05-10T06:54:16Z</time>
      </trkpt>
      <trkpt lat="42.8941" lon="0.14426">
        <ele>2138</ele>
        <time>2015-05-10T06:54:32Z</time>
      </trkpt>
      <trkpt lat="42.89411" lon="0.14412">
        <ele>2140</ele>
        <time>2015-05-10T06:54:47Z</time>
      </trkpt>
      <trkpt lat="42.89415" lon="0.14411">
        <ele>2141</ele>
        <time>2015-05-10T06:55:04Z</time>
      </trkpt>
      <trkpt lat="42.89417" lon="0.14404">
        <ele>2143</ele>
        <time>2015-05-10T06:55:22Z</time>
      </trkpt>
      <trkpt lat="42.89421" lon="0.14407">
        <ele>2146</ele>
        <time>2015-05-10T06:55:36Z</time>
      </trkpt>
      <trkpt lat="42.8942" lon="0.14411">
        <ele>2147</ele>
        <time>2015-05-10T06:55:48Z</time>
      </trkpt>
      <trkpt lat="42.89409" lon="0.14425">
        <ele>2150</ele>
        <time>2015-05-10T06:56:06Z</time>
      </trkpt>
      <trkpt lat="42.89401" lon="0.14435">
        <ele>2153</ele>
        <time>2015-05-10T06:56:23Z</time>
      </trkpt>
      <trkpt lat="42.89392" lon="0.14445">
        <ele>2155</ele>
        <time>2015-05-10T06:56:39Z</time>
      </trkpt>
      <trkpt lat="42.89381" lon="0.14459">
        <ele>2159</ele>
        <time>2015-05-10T06:56:57Z</time>
      </trkpt>
      <trkpt lat="42.89374" lon="0.1447">
        <ele>2162</ele>
        <time>2015-05-10T06:57:14Z</time>
      </trkpt>
      <trkpt lat="42.89362" lon="0.14483">
        <ele>2165</ele>
        <time>2015-05-10T06:57:33Z</time>
      </trkpt>
      <trkpt lat="42.89348" lon="0.14494">
        <ele>2167</ele>
        <time>2015-05-10T06:57:51Z</time>
      </trkpt>
      <trkpt lat="42.89342" lon="0.145">
        <ele>2168</ele>
        <time>2015-05-10T06:58:01Z</time>
      </trkpt>
      <trkpt lat="42.89332" lon="0.14507">
        <ele>2170</ele>
        <time>2015-05-10T06:58:13Z</time>
      </trkpt>
      <trkpt lat="42.89323" lon="0.14502">
        <ele>2172</ele>
        <time>2015-05-10T06:58:28Z</time>
      </trkpt>
      <trkpt lat="42.89317" lon="0.14499">
        <ele>2175</ele>
        <time>2015-05-10T06:58:43Z</time>
      </trkpt>
      <trkpt lat="42.8931" lon="0.14504">
        <ele>2177</ele>
        <time>2015-05-10T06:58:57Z</time>
      </trkpt>
      <trkpt lat="42.89304" lon="0.14496">
        <ele>2180</ele>
        <time>2015-05-10T06:59:12Z</time>
      </trkpt>
      <trkpt lat="42.89303" lon="0.14492">
        <ele>2182</ele>
        <time>2015-05-10T06:59:27Z</time>
      </trkpt>
      <trkpt lat="42.89301" lon="0.14501">
        <ele>2183</ele>
        <time>2015-05-10T06:59:44Z</time>
      </trkpt>
      <trkpt lat="42.89296" lon="0.14511">
        <ele>2187</ele>
        <time>2015-05-10T06:59:59Z</time>
      </trkpt>
      <trkpt lat="42.89284" lon="0.14523">
        <ele>2189</ele>
        <time>2015-05-10T07:00:13Z</time>
      </trkpt>
      <trkpt lat="42.89279" lon="0.14533">
        <ele>2191</ele>
        <time>2015-05-10T07:00:28Z</time>
      </trkpt>
      <trkpt lat="42.89274" lon="0.14535">
        <ele>2194</ele>
        <time>2015-05-10T07:00:42Z</time>
      </trkpt>
      <trkpt lat="42.89269" lon="0.14526">
        <ele>2196</ele>
        <time>2015-05-10T07:00:56Z</time>
      </trkpt>
      <trkpt lat="42.89265" lon="0.14516">
        <ele>2198</ele>
        <time>2015-05-10T07:01:10Z</time>
      </trkpt>
      <trkpt lat="42.89259" lon="0.14524">
        <ele>2199</ele>
        <time>2015-05-10T07:01:33Z</time>
      </trkpt>
      <trkpt lat="42.89254" lon="0.14536">
        <ele>2202</ele>
        <time>2015-05-10T07:01:53Z</time>
      </trkpt>
      <trkpt lat="42.89247" lon="0.14545">
        <ele>2204</ele>
        <time>2015-05-10T07:02:09Z</time>
      </trkpt>
      <trkpt lat="42.89237" lon="0.14554">
        <ele>2207</ele>
        <time>2015-05-10T07:02:26Z</time>
      </trkpt>
      <trkpt lat="42.89228" lon="0.14561">
        <ele>2209</ele>
        <time>2015-05-10T07:02:41Z</time>
      </trkpt>
      <trkpt lat="42.89217" lon="0.1457">
        <ele>2211</ele>
        <time>2015-05-10T07:02:57Z</time>
      </trkpt>
      <trkpt lat="42.89208" lon="0.1458">
        <ele>2214</ele>
        <time>2015-05-10T07:03:14Z</time>
      </trkpt>
      <trkpt lat="42.89203" lon="0.1459">
        <ele>2215</ele>
        <time>2015-05-10T07:03:29Z</time>
      </trkpt>
      <trkpt lat="42.89198" lon="0.14604">
        <ele>2217</ele>
        <time>2015-05-10T07:03:46Z</time>
      </trkpt>
      <trkpt lat="42.89192" lon="0.14615">
        <ele>2220</ele>
        <time>2015-05-10T07:04:02Z</time>
      </trkpt>
      <trkpt lat="42.89183" lon="0.14625">
        <ele>2222</ele>
        <time>2015-05-10T07:04:17Z</time>
      </trkpt>
      <trkpt lat="42.89174" lon="0.14633">
        <ele>2225</ele>
        <time>2015-05-10T07:04:32Z</time>
      </trkpt>
      <trkpt lat="42.89163" lon="0.1464">
        <ele>2227</ele>
        <time>2015-05-10T07:04:47Z</time>
      </trkpt>
      <trkpt lat="42.89159" lon="0.14639">
        <ele>2228</ele>
        <time>2015-05-10T07:05:01Z</time>
      </trkpt>
      <trkpt lat="42.89159" lon="0.14642">
        <ele>2228</ele>
        <time>2015-05-10T07:05:25Z</time>
      </trkpt>
      <trkpt lat="42.89154" lon="0.14638">
        <ele>2228</ele>
        <time>2015-05-10T07:05:56Z</time>
      </trkpt>
      <trkpt lat="42.89158" lon="0.14632">
        <ele>2229</ele>
        <time>2015-05-10T07:06:16Z</time>
      </trkpt>
      <trkpt lat="42.89152" lon="0.14631">
        <ele>2228</ele>
        <time>2015-05-10T07:06:40Z</time>
      </trkpt>
      <trkpt lat="42.89155" lon="0.14633">
        <ele>2229</ele>
        <time>2015-05-10T07:07:05Z</time>
      </trkpt>
      <trkpt lat="42.89162" lon="0.14637">
        <ele>2230</ele>
        <time>2015-05-10T07:07:23Z</time>
      </trkpt>
      <trkpt lat="42.89161" lon="0.14637">
        <ele>2230</ele>
        <time>2015-05-10T07:07:52Z</time>
      </trkpt>
      <trkpt lat="42.89159" lon="0.1464">
        <ele>2230</ele>
        <time>2015-05-10T07:08:20Z</time>
      </trkpt>
      <trkpt lat="42.89159" lon="0.14644">
        <ele>2230</ele>
        <time>2015-05-10T07:08:50Z</time>
      </trkpt>
      <trkpt lat="42.89159" lon="0.14641">
        <ele>2230</ele>
        <time>2015-05-10T07:09:11Z</time>
      </trkpt>
      <trkpt lat="42.89157" lon="0.14641">
        <ele>2231</ele>
        <time>2015-05-10T07:09:29Z</time>
      </trkpt>
      <trkpt lat="42.89156" lon="0.1464">
        <ele>2230</ele>
        <time>2015-05-10T07:09:52Z</time>
      </trkpt>
      <trkpt lat="42.8915" lon="0.14642">
        <ele>2231</ele>
        <time>2015-05-10T07:10:09Z</time>
      </trkpt>
      <trkpt lat="42.89134" lon="0.1465">
        <ele>2234</ele>
        <time>2015-05-10T07:10:31Z</time>
      </trkpt>
      <trkpt lat="42.89119" lon="0.14652">
        <ele>2236</ele>
        <time>2015-05-10T07:10:51Z</time>
      </trkpt>
      <trkpt lat="42.89109" lon="0.14662">
        <ele>2237</ele>
        <time>2015-05-10T07:11:05Z</time>
      </trkpt>
      <trkpt lat="42.89099" lon="0.1467">
        <ele>2240</ele>
        <time>2015-05-10T07:11:23Z</time>
      </trkpt>
      <trkpt lat="42.89092" lon="0.14679">
        <ele>2242</ele>
        <time>2015-05-10T07:11:37Z</time>
      </trkpt>
      <trkpt lat="42.89083" lon="0.1469">
        <ele>2245</ele>
        <time>2015-05-10T07:11:52Z</time>
      </trkpt>
      <trkpt lat="42.89074" lon="0.14699">
        <ele>2247</ele>
        <time>2015-05-10T07:12:09Z</time>
      </trkpt>
      <trkpt lat="42.89065" lon="0.1471">
        <ele>2250</ele>
        <time>2015-05-10T07:12:25Z</time>
      </trkpt>
      <trkpt lat="42.8906" lon="0.14716">
        <ele>2251</ele>
        <time>2015-05-10T07:12:33Z</time>
      </trkpt>
      <trkpt lat="42.89044" lon="0.14725">
        <ele>2253</ele>
        <time>2015-05-10T07:12:52Z</time>
      </trkpt>
      <trkpt lat="42.89036" lon="0.14728">
        <ele>2256</ele>
        <time>2015-05-10T07:13:08Z</time>
      </trkpt>
      <trkpt lat="42.89021" lon="0.14734">
        <ele>2259</ele>
        <time>2015-05-10T07:13:26Z</time>
      </trkpt>
      <trkpt lat="42.89019" lon="0.14733">
        <ele>2259</ele>
        <time>2015-05-10T07:13:32Z</time>
      </trkpt>
      <trkpt lat="42.89005" lon="0.14731">
        <ele>2261</ele>
        <time>2015-05-10T07:13:49Z</time>
      </trkpt>
      <trkpt lat="42.89009" lon="0.14732">
        <ele>2262</ele>
        <time>2015-05-10T07:14:05Z</time>
      </trkpt>
      <trkpt lat="42.89001" lon="0.14733">
        <ele>2260</ele>
        <time>2015-05-10T07:14:24Z</time>
      </trkpt>
      <trkpt lat="42.89002" lon="0.14724">
        <ele>2260</ele>
        <time>2015-05-10T07:14:44Z</time>
      </trkpt>
      <trkpt lat="42.88968" lon="0.14694">
        <ele>2260</ele>
        <time>2015-05-10T07:15:06Z</time>
      </trkpt>
      <trkpt lat="42.88973" lon="0.14704">
        <ele>2260</ele>
        <time>2015-05-10T07:15:25Z</time>
      </trkpt>
      <trkpt lat="42.88982" lon="0.14722">
        <ele>2259</ele>
        <time>2015-05-10T07:15:45Z</time>
      </trkpt>
      <trkpt lat="42.88978" lon="0.14741">
        <ele>2261</ele>
        <time>2015-05-10T07:16:03Z</time>
      </trkpt>
      <trkpt lat="42.88978" lon="0.14749">
        <ele>2262</ele>
        <time>2015-05-10T07:16:14Z</time>
      </trkpt>
      <trkpt lat="42.88973" lon="0.14762">
        <ele>2264</ele>
        <time>2015-05-10T07:16:31Z</time>
      </trkpt>
      <trkpt lat="42.88969" lon="0.14769">
        <ele>2266</ele>
        <time>2015-05-10T07:16:46Z</time>
      </trkpt>
      <trkpt lat="42.88961" lon="0.1478">
        <ele>2269</ele>
        <time>2015-05-10T07:17:02Z</time>
      </trkpt>
      <trkpt lat="42.8896" lon="0.1478">
        <ele>2270</ele>
        <time>2015-05-10T07:17:03Z</time>
      </trkpt>
      <trkpt lat="42.88945" lon="0.14788">
        <ele>2273</ele>
        <time>2015-05-10T07:17:19Z</time>
      </trkpt>
      <trkpt lat="42.88936" lon="0.14787">
        <ele>2276</ele>
        <time>2015-05-10T07:17:35Z</time>
      </trkpt>
      <trkpt lat="42.88937" lon="0.14789">
        <ele>2276</ele>
        <time>2015-05-10T07:18:01Z</time>
      </trkpt>
      <trkpt lat="42.88931" lon="0.14795">
        <ele>2277</ele>
        <time>2015-05-10T07:18:19Z</time>
      </trkpt>
      <trkpt lat="42.88921" lon="0.14798">
        <ele>2280</ele>
        <time>2015-05-10T07:18:33Z</time>
      </trkpt>
      <trkpt lat="42.88912" lon="0.14805">
        <ele>2284</ele>
        <time>2015-05-10T07:18:46Z</time>
      </trkpt>
      <trkpt lat="42.88909" lon="0.14813">
        <ele>2286</ele>
        <time>2015-05-10T07:19:02Z</time>
      </trkpt>
      <trkpt lat="42.889" lon="0.1482">
        <ele>2290</ele>
        <time>2015-05-10T07:19:15Z</time>
      </trkpt>
      <trkpt lat="42.88891" lon="0.14829">
        <ele>2293</ele>
        <time>2015-05-10T07:19:33Z</time>
      </trkpt>
      <trkpt lat="42.88887" lon="0.14821">
        <ele>2294</ele>
        <time>2015-05-10T07:19:52Z</time>
      </trkpt>
      <trkpt lat="42.88887" lon="0.14807">
        <ele>2296</ele>
        <time>2015-05-10T07:20:12Z</time>
      </trkpt>
      <trkpt lat="42.88886" lon="0.14796">
        <ele>2299</ele>
        <time>2015-05-10T07:20:29Z</time>
      </trkpt>
      <trkpt lat="42.88885" lon="0.14784">
        <ele>2302</ele>
        <time>2015-05-10T07:20:47Z</time>
      </trkpt>
      <trkpt lat="42.88881" lon="0.14776">
        <ele>2305</ele>
        <time>2015-05-10T07:21:00Z</time>
      </trkpt>
      <trkpt lat="42.88884" lon="0.14783">
        <ele>2305</ele>
        <time>2015-05-10T07:21:17Z</time>
      </trkpt>
      <trkpt lat="42.88884" lon="0.14787">
        <ele>2306</ele>
        <time>2015-05-10T07:21:43Z</time>
      </trkpt>
      <trkpt lat="42.88871" lon="0.14786">
        <ele>2309</ele>
        <time>2015-05-10T07:22:04Z</time>
      </trkpt>
      <trkpt lat="42.88861" lon="0.14792">
        <ele>2312</ele>
        <time>2015-05-10T07:22:20Z</time>
      </trkpt>
      <trkpt lat="42.88861" lon="0.14792">
        <ele>2312</ele>
        <time>2015-05-10T07:22:21Z</time>
      </trkpt>
      <trkpt lat="42.88853" lon="0.148">
        <ele>2315</ele>
        <time>2015-05-10T07:22:38Z</time>
      </trkpt>
      <trkpt lat="42.88847" lon="0.14799">
        <ele>2316</ele>
        <time>2015-05-10T07:22:42Z</time>
      </trkpt>
      <trkpt lat="42.88851" lon="0.1481">
        <ele>2317</ele>
        <time>2015-05-10T07:23:01Z</time>
      </trkpt>
      <trkpt lat="42.8885" lon="0.14816">
        <ele>2319</ele>
        <time>2015-05-10T07:23:18Z</time>
      </trkpt>
      <trkpt lat="42.8884" lon="0.14803">
        <ele>2320</ele>
        <time>2015-05-10T07:23:39Z</time>
      </trkpt>
      <trkpt lat="42.88843" lon="0.14794">
        <ele>2322</ele>
        <time>2015-05-10T07:23:57Z</time>
      </trkpt>
      <trkpt lat="42.88844" lon="0.14781">
        <ele>2326</ele>
        <time>2015-05-10T07:24:10Z</time>
      </trkpt>
      <trkpt lat="42.88846" lon="0.14769">
        <ele>2327</ele>
        <time>2015-05-10T07:24:25Z</time>
      </trkpt>
      <trkpt lat="42.88845" lon="0.14762">
        <ele>2330</ele>
        <time>2015-05-10T07:24:40Z</time>
      </trkpt>
      <trkpt lat="42.88837" lon="0.14767">
        <ele>2330</ele>
        <time>2015-05-10T07:25:01Z</time>
      </trkpt>
      <trkpt lat="42.88835" lon="0.14786">
        <ele>2334</ele>
        <time>2015-05-10T07:25:19Z</time>
      </trkpt>
      <trkpt lat="42.88831" lon="0.14796">
        <ele>2336</ele>
        <time>2015-05-10T07:25:33Z</time>
      </trkpt>
      <trkpt lat="42.88824" lon="0.14802">
        <ele>2339</ele>
        <time>2015-05-10T07:25:47Z</time>
      </trkpt>
      <trkpt lat="42.8882" lon="0.14818">
        <ele>2341</ele>
        <time>2015-05-10T07:26:02Z</time>
      </trkpt>
      <trkpt lat="42.88815" lon="0.14815">
        <ele>2343</ele>
        <time>2015-05-10T07:26:18Z</time>
      </trkpt>
      <trkpt lat="42.88809" lon="0.14808">
        <ele>2344</ele>
        <time>2015-05-10T07:26:42Z</time>
      </trkpt>
      <trkpt lat="42.88805" lon="0.14808">
        <ele>2347</ele>
        <time>2015-05-10T07:27:00Z</time>
      </trkpt>
      <trkpt lat="42.88799" lon="0.14802">
        <ele>2350</ele>
        <time>2015-05-10T07:27:12Z</time>
      </trkpt>
      <trkpt lat="42.88794" lon="0.1479">
        <ele>2353</ele>
        <time>2015-05-10T07:27:29Z</time>
      </trkpt>
      <trkpt lat="42.88796" lon="0.14783">
        <ele>2356</ele>
        <time>2015-05-10T07:27:41Z</time>
      </trkpt>
      <trkpt lat="42.88796" lon="0.14775">
        <ele>2358</ele>
        <time>2015-05-10T07:27:53Z</time>
      </trkpt>
      <trkpt lat="42.88795" lon="0.14767">
        <ele>2360</ele>
        <time>2015-05-10T07:28:05Z</time>
      </trkpt>
      <trkpt lat="42.88796" lon="0.14757">
        <ele>2363</ele>
        <time>2015-05-10T07:28:18Z</time>
      </trkpt>
      <trkpt lat="42.88797" lon="0.14753">
        <ele>2364</ele>
        <time>2015-05-10T07:28:31Z</time>
      </trkpt>
      <trkpt lat="42.88793" lon="0.14744">
        <ele>2365</ele>
        <time>2015-05-10T07:28:53Z</time>
      </trkpt>
      <trkpt lat="42.88798" lon="0.1474">
        <ele>2366</ele>
        <time>2015-05-10T07:29:05Z</time>
      </trkpt>
      <trkpt lat="42.88786" lon="0.14745">
        <ele>2369</ele>
        <time>2015-05-10T07:29:25Z</time>
      </trkpt>
      <trkpt lat="42.88776" lon="0.14751">
        <ele>2372</ele>
        <time>2015-05-10T07:29:43Z</time>
      </trkpt>
      <trkpt lat="42.88777" lon="0.14741">
        <ele>2373</ele>
        <time>2015-05-10T07:30:05Z</time>
      </trkpt>
      <trkpt lat="42.88782" lon="0.14729">
        <ele>2375</ele>
        <time>2015-05-10T07:30:19Z</time>
      </trkpt>
      <trkpt lat="42.88794" lon="0.14717">
        <ele>2378</ele>
        <time>2015-05-10T07:30:38Z</time>
      </trkpt>
      <trkpt lat="42.88791" lon="0.14713">
        <ele>2378</ele>
        <time>2015-05-10T07:30:57Z</time>
      </trkpt>
      <trkpt lat="42.8879" lon="0.14714">
        <ele>2378</ele>
        <time>2015-05-10T07:31:16Z</time>
      </trkpt>
      <trkpt lat="42.88791" lon="0.14712">
        <ele>2380</ele>
        <time>2015-05-10T07:31:38Z</time>
      </trkpt>
      <trkpt lat="42.88793" lon="0.14701">
        <ele>2382</ele>
        <time>2015-05-10T07:31:52Z</time>
      </trkpt>
      <trkpt lat="42.8879" lon="0.14703">
        <ele>2385</ele>
        <time>2015-05-10T07:32:05Z</time>
      </trkpt>
      <trkpt lat="42.88783" lon="0.14704">
        <ele>2387</ele>
        <time>2015-05-10T07:32:16Z</time>
      </trkpt>
      <trkpt lat="42.88778" lon="0.14708">
        <ele>2389</ele>
        <time>2015-05-10T07:32:25Z</time>
      </trkpt>
      <trkpt lat="42.88769" lon="0.14708">
        <ele>2390</ele>
        <time>2015-05-10T07:32:38Z</time>
      </trkpt>
      <trkpt lat="42.88766" lon="0.14707">
        <ele>2392</ele>
        <time>2015-05-10T07:32:55Z</time>
      </trkpt>
      <trkpt lat="42.88761" lon="0.14712">
        <ele>2393</ele>
        <time>2015-05-10T07:33:20Z</time>
      </trkpt>
      <trkpt lat="42.88755" lon="0.1472">
        <ele>2396</ele>
        <time>2015-05-10T07:33:34Z</time>
      </trkpt>
      <trkpt lat="42.88749" lon="0.14728">
        <ele>2399</ele>
        <time>2015-05-10T07:33:50Z</time>
      </trkpt>
      <trkpt lat="42.88746" lon="0.14722">
        <ele>2399</ele>
        <time>2015-05-10T07:34:08Z</time>
      </trkpt>
      <trkpt lat="42.8874" lon="0.14714">
        <ele>2400</ele>
        <time>2015-05-10T07:34:31Z</time>
      </trkpt>
      <trkpt lat="42.8874" lon="0.147">
        <ele>2402</ele>
        <time>2015-05-10T07:34:46Z</time>
      </trkpt>
      <trkpt lat="42.88739" lon="0.14691">
        <ele>2405</ele>
        <time>2015-05-10T07:34:59Z</time>
      </trkpt>
      <trkpt lat="42.88743" lon="0.1469">
        <ele>2406</ele>
        <time>2015-05-10T07:35:15Z</time>
      </trkpt>
      <trkpt lat="42.8874" lon="0.14697">
        <ele>2408</ele>
        <time>2015-05-10T07:35:24Z</time>
      </trkpt>
      <trkpt lat="42.88733" lon="0.14708">
        <ele>2411</ele>
        <time>2015-05-10T07:35:41Z</time>
      </trkpt>
      <trkpt lat="42.88729" lon="0.14719">
        <ele>2414</ele>
        <time>2015-05-10T07:35:58Z</time>
      </trkpt>
      <trkpt lat="42.88727" lon="0.14725">
        <ele>2415</ele>
        <time>2015-05-10T07:36:13Z</time>
      </trkpt>
      <trkpt lat="42.88724" lon="0.14733">
        <ele>2416</ele>
        <time>2015-05-10T07:36:31Z</time>
      </trkpt>
      <trkpt lat="42.88721" lon="0.14729">
        <ele>2417</ele>
        <time>2015-05-10T07:36:55Z</time>
      </trkpt>
      <trkpt lat="42.88719" lon="0.14743">
        <ele>2419</ele>
        <time>2015-05-10T07:37:12Z</time>
      </trkpt>
      <trkpt lat="42.88719" lon="0.1475">
        <ele>2420</ele>
        <time>2015-05-10T07:37:30Z</time>
      </trkpt>
      <trkpt lat="42.88717" lon="0.14745">
        <ele>2421</ele>
        <time>2015-05-10T07:37:50Z</time>
      </trkpt>
      <trkpt lat="42.88717" lon="0.14739">
        <ele>2421</ele>
        <time>2015-05-10T07:38:09Z</time>
      </trkpt>
      <trkpt lat="42.88715" lon="0.14728">
        <ele>2424</ele>
        <time>2015-05-10T07:38:25Z</time>
      </trkpt>
      <trkpt lat="42.88712" lon="0.14716">
        <ele>2425</ele>
        <time>2015-05-10T07:38:41Z</time>
      </trkpt>
      <trkpt lat="42.88709" lon="0.14703">
        <ele>2427</ele>
        <time>2015-05-10T07:38:59Z</time>
      </trkpt>
      <trkpt lat="42.88708" lon="0.147">
        <ele>2428</ele>
        <time>2015-05-10T07:39:21Z</time>
      </trkpt>
      <trkpt lat="42.88707" lon="0.14693">
        <ele>2430</ele>
        <time>2015-05-10T07:39:34Z</time>
      </trkpt>
      <trkpt lat="42.88707" lon="0.14684">
        <ele>2433</ele>
        <time>2015-05-10T07:39:49Z</time>
      </trkpt>
      <trkpt lat="42.88706" lon="0.1467">
        <ele>2435</ele>
        <time>2015-05-10T07:40:07Z</time>
      </trkpt>
      <trkpt lat="42.88703" lon="0.14656">
        <ele>2438</ele>
        <time>2015-05-10T07:40:24Z</time>
      </trkpt>
      <trkpt lat="42.88702" lon="0.14657">
        <ele>2438</ele>
        <time>2015-05-10T07:40:48Z</time>
      </trkpt>
      <trkpt lat="42.88702" lon="0.14665">
        <ele>2439</ele>
        <time>2015-05-10T07:41:05Z</time>
      </trkpt>
      <trkpt lat="42.88699" lon="0.14674">
        <ele>2442</ele>
        <time>2015-05-10T07:41:20Z</time>
      </trkpt>
      <trkpt lat="42.88693" lon="0.14686">
        <ele>2445</ele>
        <time>2015-05-10T07:41:37Z</time>
      </trkpt>
      <trkpt lat="42.88691" lon="0.14692">
        <ele>2447</ele>
        <time>2015-05-10T07:41:56Z</time>
      </trkpt>
      <trkpt lat="42.88687" lon="0.14676">
        <ele>2448</ele>
        <time>2015-05-10T07:42:15Z</time>
      </trkpt>
      <trkpt lat="42.88684" lon="0.14667">
        <ele>2450</ele>
        <time>2015-05-10T07:42:30Z</time>
      </trkpt>
      <trkpt lat="42.88683" lon="0.14658">
        <ele>2452</ele>
        <time>2015-05-10T07:42:45Z</time>
      </trkpt>
      <trkpt lat="42.88683" lon="0.1467">
        <ele>2452</ele>
        <time>2015-05-10T07:43:03Z</time>
      </trkpt>
      <trkpt lat="42.88679" lon="0.14678">
        <ele>2455</ele>
        <time>2015-05-10T07:43:16Z</time>
      </trkpt>
      <trkpt lat="42.88678" lon="0.14687">
        <ele>2457</ele>
        <time>2015-05-10T07:43:31Z</time>
      </trkpt>
      <trkpt lat="42.88676" lon="0.14688">
        <ele>2457</ele>
        <time>2015-05-10T07:43:54Z</time>
      </trkpt>
      <trkpt lat="42.88672" lon="0.14698">
        <ele>2460</ele>
        <time>2015-05-10T07:44:10Z</time>
      </trkpt>
      <trkpt lat="42.88668" lon="0.14704">
        <ele>2460</ele>
        <time>2015-05-10T07:44:29Z</time>
      </trkpt>
      <trkpt lat="42.88666" lon="0.14709">
        <ele>2463</ele>
        <time>2015-05-10T07:44:51Z</time>
      </trkpt>
      <trkpt lat="42.88662" lon="0.14715">
        <ele>2465</ele>
        <time>2015-05-10T07:45:10Z</time>
      </trkpt>
      <trkpt lat="42.88659" lon="0.1472">
        <ele>2467</ele>
        <time>2015-05-10T07:45:29Z</time>
      </trkpt>
      <trkpt lat="42.88658" lon="0.14729">
        <ele>2469</ele>
        <time>2015-05-10T07:45:45Z</time>
      </trkpt>
      <trkpt lat="42.88655" lon="0.14733">
        <ele>2470</ele>
        <time>2015-05-10T07:45:49Z</time>
      </trkpt>
      <trkpt lat="42.88655" lon="0.14736">
        <ele>2470</ele>
        <time>2015-05-10T07:46:05Z</time>
      </trkpt>
      <trkpt lat="42.88661" lon="0.14727">
        <ele>2472</ele>
        <time>2015-05-10T07:46:27Z</time>
      </trkpt>
      <trkpt lat="42.88664" lon="0.14716">
        <ele>2473</ele>
        <time>2015-05-10T07:46:41Z</time>
      </trkpt>
      <trkpt lat="42.88668" lon="0.14706">
        <ele>2475</ele>
        <time>2015-05-10T07:46:55Z</time>
      </trkpt>
      <trkpt lat="42.88668" lon="0.14706">
        <ele>2476</ele>
        <time>2015-05-10T07:47:09Z</time>
      </trkpt>
      <trkpt lat="42.88657" lon="0.14717">
        <ele>2476</ele>
        <time>2015-05-10T07:47:31Z</time>
      </trkpt>
      <trkpt lat="42.88654" lon="0.14723">
        <ele>2478</ele>
        <time>2015-05-10T07:47:47Z</time>
      </trkpt>
      <trkpt lat="42.88656" lon="0.14728">
        <ele>2481</ele>
        <time>2015-05-10T07:48:02Z</time>
      </trkpt>
      <trkpt lat="42.88654" lon="0.14736">
        <ele>2481</ele>
        <time>2015-05-10T07:48:19Z</time>
      </trkpt>
      <trkpt lat="42.88651" lon="0.14739">
        <ele>2483</ele>
        <time>2015-05-10T07:48:41Z</time>
      </trkpt>
      <trkpt lat="42.88651" lon="0.14742">
        <ele>2483</ele>
        <time>2015-05-10T07:49:00Z</time>
      </trkpt>
      <trkpt lat="42.88654" lon="0.14739">
        <ele>2483</ele>
        <time>2015-05-10T07:49:21Z</time>
      </trkpt>
      <trkpt lat="42.88655" lon="0.14739">
        <ele>2484</ele>
        <time>2015-05-10T07:49:40Z</time>
      </trkpt>
      <trkpt lat="42.88653" lon="0.14738">
        <ele>2484</ele>
        <time>2015-05-10T07:50:04Z</time>
      </trkpt>
      <trkpt lat="42.88654" lon="0.14735">
        <ele>2484</ele>
        <time>2015-05-10T07:50:23Z</time>
      </trkpt>
      <trkpt lat="42.88662" lon="0.14735">
        <ele>2484</ele>
        <time>2015-05-10T07:50:51Z</time>
      </trkpt>
      <trkpt lat="42.88661" lon="0.14737">
        <ele>2484</ele>
        <time>2015-05-10T07:51:11Z</time>
      </trkpt>
      <trkpt lat="42.8866" lon="0.14734">
        <ele>2483</ele>
        <time>2015-05-10T07:51:28Z</time>
      </trkpt>
      <trkpt lat="42.88663" lon="0.14732">
        <ele>2484</ele>
        <time>2015-05-10T07:51:47Z</time>
      </trkpt>
      <trkpt lat="42.8866" lon="0.14734">
        <ele>2485</ele>
        <time>2015-05-10T07:52:07Z</time>
      </trkpt>
      <trkpt lat="42.88658" lon="0.14733">
        <ele>2485</ele>
        <time>2015-05-10T07:52:26Z</time>
      </trkpt>
      <trkpt lat="42.88657" lon="0.14734">
        <ele>2484</ele>
        <time>2015-05-10T07:52:50Z</time>
      </trkpt>
      <trkpt lat="42.88679" lon="0.14728">
        <ele>2485</ele>
        <time>2015-05-10T07:53:10Z</time>
      </trkpt>
      <trkpt lat="42.88649" lon="0.14734">
        <ele>2484</ele>
        <time>2015-05-10T07:53:31Z</time>
      </trkpt>
      <trkpt lat="42.88658" lon="0.14733">
        <ele>2485</ele>
        <time>2015-05-10T07:53:52Z</time>
      </trkpt>
      <trkpt lat="42.88657" lon="0.14733">
        <ele>2485</ele>
        <time>2015-05-10T07:54:18Z</time>
      </trkpt>
      <trkpt lat="42.88655" lon="0.14735">
        <ele>2484</ele>
        <time>2015-05-10T07:54:44Z</time>
      </trkpt>
      <trkpt lat="42.88658" lon="0.14736">
        <ele>2484</ele>
        <time>2015-05-10T07:55:11Z</time>
      </trkpt>
      <trkpt lat="42.88656" lon="0.14732">
        <ele>2484</ele>
        <time>2015-05-10T07:55:37Z</time>
      </trkpt>
      <trkpt lat="42.88726" lon="0.14715">
        <ele>2484</ele>
        <time>2015-05-10T07:56:01Z</time>
      </trkpt>
      <trkpt lat="42.88713" lon="0.14723">
        <ele>2484</ele>
        <time>2015-05-10T07:56:23Z</time>
      </trkpt>
      <trkpt lat="42.88705" lon="0.14727">
        <ele>2484</ele>
        <time>2015-05-10T07:56:46Z</time>
      </trkpt>
      <trkpt lat="42.88731" lon="0.14717">
        <ele>2483</ele>
        <time>2015-05-10T07:57:16Z</time>
      </trkpt>
      <trkpt lat="42.88731" lon="0.1472">
        <ele>2483</ele>
        <time>2015-05-10T07:57:38Z</time>
      </trkpt>
      <trkpt lat="42.88734" lon="0.1472">
        <ele>2484</ele>
        <time>2015-05-10T07:57:56Z</time>
      </trkpt>
      <trkpt lat="42.88739" lon="0.14718">
        <ele>2484</ele>
        <time>2015-05-10T07:58:19Z</time>
      </trkpt>
      <trkpt lat="42.8874" lon="0.1472">
        <ele>2484</ele>
        <time>2015-05-10T07:58:38Z</time>
      </trkpt>
      <trkpt lat="42.88743" lon="0.14721">
        <ele>2484</ele>
        <time>2015-05-10T07:59:05Z</time>
      </trkpt>
      <trkpt lat="42.88744" lon="0.14716">
        <ele>2484</ele>
        <time>2015-05-10T07:59:26Z</time>
      </trkpt>
      <trkpt lat="42.88746" lon="0.14717">
        <ele>2484</ele>
        <time>2015-05-10T07:59:50Z</time>
      </trkpt>
      <trkpt lat="42.88742" lon="0.14718">
        <ele>2483</ele>
        <time>2015-05-10T08:00:05Z</time>
      </trkpt>
      <trkpt lat="42.88745" lon="0.14719">
        <ele>2484</ele>
        <time>2015-05-10T08:00:16Z</time>
      </trkpt>
      <trkpt lat="42.88747" lon="0.14717">
        <ele>2483</ele>
        <time>2015-05-10T08:00:42Z</time>
      </trkpt>
      <trkpt lat="42.88749" lon="0.14718">
        <ele>2483</ele>
        <time>2015-05-10T08:01:02Z</time>
      </trkpt>
      <trkpt lat="42.88751" lon="0.14718">
        <ele>2483</ele>
        <time>2015-05-10T08:01:22Z</time>
      </trkpt>
      <trkpt lat="42.88755" lon="0.14717">
        <ele>2483</ele>
        <time>2015-05-10T08:01:45Z</time>
      </trkpt>
      <trkpt lat="42.88756" lon="0.14718">
        <ele>2483</ele>
        <time>2015-05-10T08:02:05Z</time>
      </trkpt>
      <trkpt lat="42.8875" lon="0.14718">
        <ele>2483</ele>
        <time>2015-05-10T08:02:32Z</time>
      </trkpt>
      <trkpt lat="42.8875" lon="0.1472">
        <ele>2482</ele>
        <time>2015-05-10T08:02:59Z</time>
      </trkpt>
      <trkpt lat="42.88751" lon="0.14722">
        <ele>2483</ele>
        <time>2015-05-10T08:03:19Z</time>
      </trkpt>
      <trkpt lat="42.8875" lon="0.14719">
        <ele>2483</ele>
        <time>2015-05-10T08:03:41Z</time>
      </trkpt>
      <trkpt lat="42.88747" lon="0.14721">
        <ele>2483</ele>
        <time>2015-05-10T08:04:04Z</time>
      </trkpt>
      <trkpt lat="42.88749" lon="0.14717">
        <ele>2481</ele>
        <time>2015-05-10T08:04:28Z</time>
      </trkpt>
      <trkpt lat="42.88749" lon="0.14717">
        <ele>2483</ele>
        <time>2015-05-10T08:04:29Z</time>
      </trkpt>
      <trkpt lat="42.88743" lon="0.14717">
        <ele>2482</ele>
        <time>2015-05-10T08:04:49Z</time>
      </trkpt>
      <trkpt lat="42.88731" lon="0.14718">
        <ele>2483</ele>
        <time>2015-05-10T08:05:17Z</time>
      </trkpt>
      <trkpt lat="42.88726" lon="0.14715">
        <ele>2483</ele>
        <time>2015-05-10T08:05:41Z</time>
      </trkpt>
      <trkpt lat="42.88709" lon="0.14717">
        <ele>2483</ele>
        <time>2015-05-10T08:06:15Z</time>
      </trkpt>
      <trkpt lat="42.88709" lon="0.14713">
        <ele>2483</ele>
        <time>2015-05-10T08:06:39Z</time>
      </trkpt>
      <trkpt lat="42.88716" lon="0.1472">
        <ele>2483</ele>
        <time>2015-05-10T08:07:13Z</time>
      </trkpt>
      <trkpt lat="42.88719" lon="0.14723">
        <ele>2484</ele>
        <time>2015-05-10T08:07:46Z</time>
      </trkpt>
      <trkpt lat="42.88718" lon="0.14723">
        <ele>2484</ele>
        <time>2015-05-10T08:08:14Z</time>
      </trkpt>
      <trkpt lat="42.88718" lon="0.14726">
        <ele>2484</ele>
        <time>2015-05-10T08:08:43Z</time>
      </trkpt>
      <trkpt lat="42.88715" lon="0.14723">
        <ele>2484</ele>
        <time>2015-05-10T08:09:08Z</time>
      </trkpt>
      <trkpt lat="42.88704" lon="0.14728">
        <ele>2484</ele>
        <time>2015-05-10T08:09:33Z</time>
      </trkpt>
      <trkpt lat="42.88687" lon="0.14728">
        <ele>2484</ele>
        <time>2015-05-10T08:09:56Z</time>
      </trkpt>
      <trkpt lat="42.88665" lon="0.1473">
        <ele>2484</ele>
        <time>2015-05-10T08:10:21Z</time>
      </trkpt>
      <trkpt lat="42.88654" lon="0.14737">
        <ele>2485</ele>
        <time>2015-05-10T08:10:47Z</time>
      </trkpt>
      <trkpt lat="42.88663" lon="0.14736">
        <ele>2485</ele>
        <time>2015-05-10T08:11:09Z</time>
      </trkpt>
      <trkpt lat="42.8867" lon="0.14732">
        <ele>2485</ele>
        <time>2015-05-10T08:11:35Z</time>
      </trkpt>
      <trkpt lat="42.88676" lon="0.14729">
        <ele>2485</ele>
        <time>2015-05-10T08:11:58Z</time>
      </trkpt>
      <trkpt lat="42.88676" lon="0.14731">
        <ele>2486</ele>
        <time>2015-05-10T08:12:22Z</time>
      </trkpt>
      <trkpt lat="42.88679" lon="0.14734">
        <ele>2484</ele>
        <time>2015-05-10T08:12:34Z</time>
      </trkpt>
      <trkpt lat="42.8868" lon="0.14727">
        <ele>2480</ele>
        <time>2015-05-10T08:12:37Z</time>
      </trkpt>
      <trkpt lat="42.88681" lon="0.14724">
        <ele>2480</ele>
        <time>2015-05-10T08:12:38Z</time>
      </trkpt>
      <trkpt lat="42.88677" lon="0.14718">
        <ele>2479</ele>
        <time>2015-05-10T08:12:49Z</time>
      </trkpt>
      <trkpt lat="42.88673" lon="0.14713">
        <ele>2479</ele>
        <time>2015-05-10T08:12:54Z</time>
      </trkpt>
      <trkpt lat="42.88674" lon="0.14708">
        <ele>2478</ele>
        <time>2015-05-10T08:12:58Z</time>
      </trkpt>
      <trkpt lat="42.88683" lon="0.14711">
        <ele>2475</ele>
        <time>2015-05-10T08:13:02Z</time>
      </trkpt>
      <trkpt lat="42.88684" lon="0.14713">
        <ele>2475</ele>
        <time>2015-05-10T08:13:03Z</time>
      </trkpt>
      <trkpt lat="42.88686" lon="0.14714">
        <ele>2471</ele>
        <time>2015-05-10T08:13:06Z</time>
      </trkpt>
      <trkpt lat="42.88682" lon="0.14702">
        <ele>2470</ele>
        <time>2015-05-10T08:13:16Z</time>
      </trkpt>
      <trkpt lat="42.88682" lon="0.14694">
        <ele>2469</ele>
        <time>2015-05-10T08:13:20Z</time>
      </trkpt>
      <trkpt lat="42.88692" lon="0.14705">
        <ele>2465</ele>
        <time>2015-05-10T08:13:25Z</time>
      </trkpt>
      <trkpt lat="42.88696" lon="0.147">
        <ele>2462</ele>
        <time>2015-05-10T08:13:28Z</time>
      </trkpt>
      <trkpt lat="42.88701" lon="0.14701">
        <ele>2459</ele>
        <time>2015-05-10T08:13:31Z</time>
      </trkpt>
      <trkpt lat="42.88703" lon="0.14702">
        <ele>2457</ele>
        <time>2015-05-10T08:13:32Z</time>
      </trkpt>
      <trkpt lat="42.88706" lon="0.14702">
        <ele>2456</ele>
        <time>2015-05-10T08:13:33Z</time>
      </trkpt>
      <trkpt lat="42.88714" lon="0.14702">
        <ele>2452</ele>
        <time>2015-05-10T08:13:36Z</time>
      </trkpt>
      <trkpt lat="42.88723" lon="0.14703">
        <ele>2449</ele>
        <time>2015-05-10T08:13:40Z</time>
      </trkpt>
      <trkpt lat="42.88729" lon="0.14702">
        <ele>2447</ele>
        <time>2015-05-10T08:13:42Z</time>
      </trkpt>
      <trkpt lat="42.88744" lon="0.14702">
        <ele>2446</ele>
        <time>2015-05-10T08:13:54Z</time>
      </trkpt>
      <trkpt lat="42.88744" lon="0.14703">
        <ele>2445</ele>
        <time>2015-05-10T08:13:56Z</time>
      </trkpt>
      <trkpt lat="42.88745" lon="0.14706">
        <ele>2443</ele>
        <time>2015-05-10T08:13:59Z</time>
      </trkpt>
      <trkpt lat="42.88748" lon="0.14699">
        <ele>2440</ele>
        <time>2015-05-10T08:14:02Z</time>
      </trkpt>
      <trkpt lat="42.88757" lon="0.14703">
        <ele>2437</ele>
        <time>2015-05-10T08:14:05Z</time>
      </trkpt>
      <trkpt lat="42.88763" lon="0.14708">
        <ele>2436</ele>
        <time>2015-05-10T08:14:07Z</time>
      </trkpt>
      <trkpt lat="42.88767" lon="0.14706">
        <ele>2433</ele>
        <time>2015-05-10T08:14:10Z</time>
      </trkpt>
      <trkpt lat="42.88775" lon="0.14707">
        <ele>2429</ele>
        <time>2015-05-10T08:14:13Z</time>
      </trkpt>
      <trkpt lat="42.88777" lon="0.14709">
        <ele>2426</ele>
        <time>2015-05-10T08:14:16Z</time>
      </trkpt>
      <trkpt lat="42.88778" lon="0.14709">
        <ele>2425</ele>
        <time>2015-05-10T08:14:17Z</time>
      </trkpt>
      <trkpt lat="42.88774" lon="0.14699">
        <ele>2425</ele>
        <time>2015-05-10T08:14:29Z</time>
      </trkpt>
      <trkpt lat="42.88774" lon="0.14698">
        <ele>2424</ele>
        <time>2015-05-10T08:14:31Z</time>
      </trkpt>
      <trkpt lat="42.88781" lon="0.14687">
        <ele>2419</ele>
        <time>2015-05-10T08:14:35Z</time>
      </trkpt>
      <trkpt lat="42.88801" lon="0.14654">
        <ele>2417</ele>
        <time>2015-05-10T08:14:47Z</time>
      </trkpt>
      <trkpt lat="42.88806" lon="0.14659">
        <ele>2415</ele>
        <time>2015-05-10T08:14:50Z</time>
      </trkpt>
      <trkpt lat="42.88809" lon="0.14661">
        <ele>2414</ele>
        <time>2015-05-10T08:14:51Z</time>
      </trkpt>
      <trkpt lat="42.88813" lon="0.14668">
        <ele>2412</ele>
        <time>2015-05-10T08:14:53Z</time>
      </trkpt>
      <trkpt lat="42.88816" lon="0.14671">
        <ele>2410</ele>
        <time>2015-05-10T08:14:54Z</time>
      </trkpt>
      <trkpt lat="42.88827" lon="0.14679">
        <ele>2407</ele>
        <time>2015-05-10T08:14:57Z</time>
      </trkpt>
      <trkpt lat="42.88838" lon="0.14682">
        <ele>2403</ele>
        <time>2015-05-10T08:14:59Z</time>
      </trkpt>
      <trkpt lat="42.88846" lon="0.14682">
        <ele>2401</ele>
        <time>2015-05-10T08:15:01Z</time>
      </trkpt>
      <trkpt lat="42.8886" lon="0.14682">
        <ele>2396</ele>
        <time>2015-05-10T08:15:04Z</time>
      </trkpt>
      <trkpt lat="42.88874" lon="0.14687">
        <ele>2393</ele>
        <time>2015-05-10T08:15:08Z</time>
      </trkpt>
      <trkpt lat="42.88877" lon="0.14689">
        <ele>2391</ele>
        <time>2015-05-10T08:15:09Z</time>
      </trkpt>
      <trkpt lat="42.8888" lon="0.1469">
        <ele>2389</ele>
        <time>2015-05-10T08:15:10Z</time>
      </trkpt>
      <trkpt lat="42.88883" lon="0.14691">
        <ele>2388</ele>
        <time>2015-05-10T08:15:11Z</time>
      </trkpt>
      <trkpt lat="42.88885" lon="0.14694">
        <ele>2386</ele>
        <time>2015-05-10T08:15:12Z</time>
      </trkpt>
      <trkpt lat="42.88887" lon="0.14697">
        <ele>2385</ele>
        <time>2015-05-10T08:15:13Z</time>
      </trkpt>
      <trkpt lat="42.88893" lon="0.14705">
        <ele>2381</ele>
        <time>2015-05-10T08:15:16Z</time>
      </trkpt>
      <trkpt lat="42.88895" lon="0.14714">
        <ele>2377</ele>
        <time>2015-05-10T08:15:17Z</time>
      </trkpt>
      <trkpt lat="42.88901" lon="0.14723">
        <ele>2374</ele>
        <time>2015-05-10T08:15:19Z</time>
      </trkpt>
      <trkpt lat="42.88901" lon="0.14726">
        <ele>2373</ele>
        <time>2015-05-10T08:15:20Z</time>
      </trkpt>
      <trkpt lat="42.88896" lon="0.14738">
        <ele>2370</ele>
        <time>2015-05-10T08:15:30Z</time>
      </trkpt>
      <trkpt lat="42.88895" lon="0.14739">
        <ele>2368</ele>
        <time>2015-05-10T08:15:34Z</time>
      </trkpt>
      <trkpt lat="42.88896" lon="0.14743">
        <ele>2366</ele>
        <time>2015-05-10T08:15:35Z</time>
      </trkpt>
      <trkpt lat="42.88899" lon="0.1475">
        <ele>2364</ele>
        <time>2015-05-10T08:15:37Z</time>
      </trkpt>
      <trkpt lat="42.88907" lon="0.14754">
        <ele>2360</ele>
        <time>2015-05-10T08:15:39Z</time>
      </trkpt>
      <trkpt lat="42.88911" lon="0.14757">
        <ele>2358</ele>
        <time>2015-05-10T08:15:40Z</time>
      </trkpt>
      <trkpt lat="42.88913" lon="0.14759">
        <ele>2357</ele>
        <time>2015-05-10T08:15:41Z</time>
      </trkpt>
      <trkpt lat="42.88926" lon="0.1476">
        <ele>2353</ele>
        <time>2015-05-10T08:15:43Z</time>
      </trkpt>
      <trkpt lat="42.88931" lon="0.14759">
        <ele>2352</ele>
        <time>2015-05-10T08:15:44Z</time>
      </trkpt>
      <trkpt lat="42.88934" lon="0.14759">
        <ele>2351</ele>
        <time>2015-05-10T08:15:45Z</time>
      </trkpt>
      <trkpt lat="42.88942" lon="0.14762">
        <ele>2348</ele>
        <time>2015-05-10T08:15:46Z</time>
      </trkpt>
      <trkpt lat="42.88947" lon="0.14763">
        <ele>2346</ele>
        <time>2015-05-10T08:15:47Z</time>
      </trkpt>
      <trkpt lat="42.88953" lon="0.14764">
        <ele>2344</ele>
        <time>2015-05-10T08:15:48Z</time>
      </trkpt>
      <trkpt lat="42.88956" lon="0.14763">
        <ele>2342</ele>
        <time>2015-05-10T08:15:49Z</time>
      </trkpt>
      <trkpt lat="42.8896" lon="0.14763">
        <ele>2341</ele>
        <time>2015-05-10T08:15:50Z</time>
      </trkpt>
      <trkpt lat="42.88964" lon="0.14763">
        <ele>2339</ele>
        <time>2015-05-10T08:15:51Z</time>
      </trkpt>
      <trkpt lat="42.88968" lon="0.14763">
        <ele>2338</ele>
        <time>2015-05-10T08:15:52Z</time>
      </trkpt>
      <trkpt lat="42.88972" lon="0.14763">
        <ele>2336</ele>
        <time>2015-05-10T08:15:53Z</time>
      </trkpt>
      <trkpt lat="42.88976" lon="0.14761">
        <ele>2335</ele>
        <time>2015-05-10T08:15:54Z</time>
      </trkpt>
      <trkpt lat="42.88984" lon="0.1476">
        <ele>2331</ele>
        <time>2015-05-10T08:15:56Z</time>
      </trkpt>
      <trkpt lat="42.88989" lon="0.14762">
        <ele>2328</ele>
        <time>2015-05-10T08:15:58Z</time>
      </trkpt>
      <trkpt lat="42.88994" lon="0.14762">
        <ele>2326</ele>
        <time>2015-05-10T08:16:00Z</time>
      </trkpt>
      <trkpt lat="42.89" lon="0.14764">
        <ele>2323</ele>
        <time>2015-05-10T08:16:02Z</time>
      </trkpt>
      <trkpt lat="42.89005" lon="0.14765">
        <ele>2321</ele>
        <time>2015-05-10T08:16:03Z</time>
      </trkpt>
      <trkpt lat="42.89015" lon="0.14768">
        <ele>2318</ele>
        <time>2015-05-10T08:16:06Z</time>
      </trkpt>
      <trkpt lat="42.89019" lon="0.14769">
        <ele>2317</ele>
        <time>2015-05-10T08:16:07Z</time>
      </trkpt>
      <trkpt lat="42.89014" lon="0.1477">
        <ele>2318</ele>
        <time>2015-05-10T08:16:17Z</time>
      </trkpt>
      <trkpt lat="42.89016" lon="0.1477">
        <ele>2316</ele>
        <time>2015-05-10T08:16:25Z</time>
      </trkpt>
      <trkpt lat="42.89019" lon="0.1477">
        <ele>2315</ele>
        <time>2015-05-10T08:16:26Z</time>
      </trkpt>
      <trkpt lat="42.89021" lon="0.14769">
        <ele>2314</ele>
        <time>2015-05-10T08:16:27Z</time>
      </trkpt>
      <trkpt lat="42.89023" lon="0.14768">
        <ele>2313</ele>
        <time>2015-05-10T08:16:28Z</time>
      </trkpt>
      <trkpt lat="42.89026" lon="0.14769">
        <ele>2312</ele>
        <time>2015-05-10T08:16:29Z</time>
      </trkpt>
      <trkpt lat="42.89035" lon="0.14776">
        <ele>2310</ele>
        <time>2015-05-10T08:16:32Z</time>
      </trkpt>
      <trkpt lat="42.89038" lon="0.14778">
        <ele>2305</ele>
        <time>2015-05-10T08:16:35Z</time>
      </trkpt>
      <trkpt lat="42.89044" lon="0.14778">
        <ele>2302</ele>
        <time>2015-05-10T08:16:37Z</time>
      </trkpt>
      <trkpt lat="42.89054" lon="0.14788">
        <ele>2298</ele>
        <time>2015-05-10T08:16:40Z</time>
      </trkpt>
      <trkpt lat="42.89056" lon="0.148">
        <ele>2295</ele>
        <time>2015-05-10T08:16:45Z</time>
      </trkpt>
      <trkpt lat="42.89062" lon="0.14793">
        <ele>2290</ele>
        <time>2015-05-10T08:16:48Z</time>
      </trkpt>
      <trkpt lat="42.89065" lon="0.14792">
        <ele>2290</ele>
        <time>2015-05-10T08:16:49Z</time>
      </trkpt>
      <trkpt lat="42.89067" lon="0.14771">
        <ele>2291</ele>
        <time>2015-05-10T08:16:52Z</time>
      </trkpt>
      <trkpt lat="42.89073" lon="0.14766">
        <ele>2290</ele>
        <time>2015-05-10T08:16:56Z</time>
      </trkpt>
      <trkpt lat="42.89074" lon="0.14766">
        <ele>2288</ele>
        <time>2015-05-10T08:16:57Z</time>
      </trkpt>
      <trkpt lat="42.89076" lon="0.14772">
        <ele>2284</ele>
        <time>2015-05-10T08:16:59Z</time>
      </trkpt>
      <trkpt lat="42.89077" lon="0.14776">
        <ele>2282</ele>
        <time>2015-05-10T08:17:00Z</time>
      </trkpt>
      <trkpt lat="42.89079" lon="0.14778">
        <ele>2280</ele>
        <time>2015-05-10T08:17:01Z</time>
      </trkpt>
      <trkpt lat="42.89092" lon="0.14772">
        <ele>2276</ele>
        <time>2015-05-10T08:17:05Z</time>
      </trkpt>
      <trkpt lat="42.89099" lon="0.14771">
        <ele>2272</ele>
        <time>2015-05-10T08:17:08Z</time>
      </trkpt>
      <trkpt lat="42.89101" lon="0.1477">
        <ele>2270</ele>
        <time>2015-05-10T08:17:09Z</time>
      </trkpt>
      <trkpt lat="42.89109" lon="0.14761">
        <ele>2267</ele>
        <time>2015-05-10T08:17:14Z</time>
      </trkpt>
      <trkpt lat="42.89112" lon="0.1476">
        <ele>2266</ele>
        <time>2015-05-10T08:17:15Z</time>
      </trkpt>
      <trkpt lat="42.89113" lon="0.14761">
        <ele>2265</ele>
        <time>2015-05-10T08:17:16Z</time>
      </trkpt>
      <trkpt lat="42.89118" lon="0.14765">
        <ele>2263</ele>
        <time>2015-05-10T08:17:17Z</time>
      </trkpt>
      <trkpt lat="42.89151" lon="0.14759">
        <ele>2262</ele>
        <time>2015-05-10T08:17:26Z</time>
      </trkpt>
      <trkpt lat="42.89168" lon="0.14753">
        <ele>2259</ele>
        <time>2015-05-10T08:17:30Z</time>
      </trkpt>
      <trkpt lat="42.89172" lon="0.14752">
        <ele>2258</ele>
        <time>2015-05-10T08:17:31Z</time>
      </trkpt>
      <trkpt lat="42.89186" lon="0.14744">
        <ele>2255</ele>
        <time>2015-05-10T08:17:35Z</time>
      </trkpt>
      <trkpt lat="42.89189" lon="0.14741">
        <ele>2255</ele>
        <time>2015-05-10T08:17:36Z</time>
      </trkpt>
      <trkpt lat="42.89208" lon="0.14723">
        <ele>2251</ele>
        <time>2015-05-10T08:17:42Z</time>
      </trkpt>
      <trkpt lat="42.89224" lon="0.1469">
        <ele>2248</ele>
        <time>2015-05-10T08:17:51Z</time>
      </trkpt>
      <trkpt lat="42.89226" lon="0.14685">
        <ele>2247</ele>
        <time>2015-05-10T08:17:52Z</time>
      </trkpt>
      <trkpt lat="42.89231" lon="0.14681">
        <ele>2246</ele>
        <time>2015-05-10T08:17:53Z</time>
      </trkpt>
      <trkpt lat="42.89239" lon="0.14668">
        <ele>2244</ele>
        <time>2015-05-10T08:17:55Z</time>
      </trkpt>
      <trkpt lat="42.89243" lon="0.14664">
        <ele>2244</ele>
        <time>2015-05-10T08:17:56Z</time>
      </trkpt>
      <trkpt lat="42.89248" lon="0.1466">
        <ele>2244</ele>
        <time>2015-05-10T08:17:57Z</time>
      </trkpt>
      <trkpt lat="42.89254" lon="0.14658">
        <ele>2243</ele>
        <time>2015-05-10T08:17:58Z</time>
      </trkpt>
      <trkpt lat="42.8926" lon="0.14657">
        <ele>2243</ele>
        <time>2015-05-10T08:17:59Z</time>
      </trkpt>
      <trkpt lat="42.89288" lon="0.14656">
        <ele>2240</ele>
        <time>2015-05-10T08:18:04Z</time>
      </trkpt>
      <trkpt lat="42.89314" lon="0.14633">
        <ele>2238</ele>
        <time>2015-05-10T08:18:16Z</time>
      </trkpt>
      <trkpt lat="42.89304" lon="0.14627">
        <ele>2239</ele>
        <time>2015-05-10T08:18:35Z</time>
      </trkpt>
      <trkpt lat="42.89294" lon="0.14629">
        <ele>2240</ele>
        <time>2015-05-10T08:18:58Z</time>
      </trkpt>
      <trkpt lat="42.8928" lon="0.1463">
        <ele>2242</ele>
        <time>2015-05-10T08:19:28Z</time>
      </trkpt>
      <trkpt lat="42.89235" lon="0.14638">
        <ele>2243</ele>
        <time>2015-05-10T08:19:54Z</time>
      </trkpt>
      <trkpt lat="42.89219" lon="0.14648">
        <ele>2244</ele>
        <time>2015-05-10T08:20:26Z</time>
      </trkpt>
      <trkpt lat="42.89221" lon="0.14654">
        <ele>2246</ele>
        <time>2015-05-10T08:20:56Z</time>
      </trkpt>
      <trkpt lat="42.89214" lon="0.14639">
        <ele>2246</ele>
        <time>2015-05-10T08:21:27Z</time>
      </trkpt>
      <trkpt lat="42.89195" lon="0.14639">
        <ele>2247</ele>
        <time>2015-05-10T08:22:05Z</time>
      </trkpt>
      <trkpt lat="42.89191" lon="0.14637">
        <ele>2247</ele>
        <time>2015-05-10T08:22:33Z</time>
      </trkpt>
      <trkpt lat="42.89189" lon="0.14633">
        <ele>2247</ele>
        <time>2015-05-10T08:23:02Z</time>
      </trkpt>
      <trkpt lat="42.89196" lon="0.14617">
        <ele>2244</ele>
        <time>2015-05-10T08:23:25Z</time>
      </trkpt>
      <trkpt lat="42.89202" lon="0.14605">
        <ele>2240</ele>
        <time>2015-05-10T08:23:28Z</time>
      </trkpt>
      <trkpt lat="42.89216" lon="0.1458">
        <ele>2238</ele>
        <time>2015-05-10T08:23:32Z</time>
      </trkpt>
      <trkpt lat="42.89225" lon="0.14566">
        <ele>2236</ele>
        <time>2015-05-10T08:23:34Z</time>
      </trkpt>
      <trkpt lat="42.89239" lon="0.14549">
        <ele>2233</ele>
        <time>2015-05-10T08:23:37Z</time>
      </trkpt>
      <trkpt lat="42.89254" lon="0.1453">
        <ele>2230</ele>
        <time>2015-05-10T08:23:41Z</time>
      </trkpt>
      <trkpt lat="42.89258" lon="0.14525">
        <ele>2229</ele>
        <time>2015-05-10T08:23:42Z</time>
      </trkpt>
      <trkpt lat="42.89271" lon="0.14521">
        <ele>2224</ele>
        <time>2015-05-10T08:23:45Z</time>
      </trkpt>
      <trkpt lat="42.89281" lon="0.14517">
        <ele>2220</ele>
        <time>2015-05-10T08:23:48Z</time>
      </trkpt>
      <trkpt lat="42.89293" lon="0.14505">
        <ele>2215</ele>
        <time>2015-05-10T08:23:52Z</time>
      </trkpt>
      <trkpt lat="42.89302" lon="0.14505">
        <ele>2211</ele>
        <time>2015-05-10T08:23:54Z</time>
      </trkpt>
      <trkpt lat="42.89307" lon="0.14504">
        <ele>2208</ele>
        <time>2015-05-10T08:23:55Z</time>
      </trkpt>
      <trkpt lat="42.89318" lon="0.14494">
        <ele>2203</ele>
        <time>2015-05-10T08:23:57Z</time>
      </trkpt>
      <trkpt lat="42.89329" lon="0.14484">
        <ele>2203</ele>
        <time>2015-05-10T08:23:59Z</time>
      </trkpt>
      <trkpt lat="42.8934" lon="0.14485">
        <ele>2199</ele>
        <time>2015-05-10T08:24:01Z</time>
      </trkpt>
      <trkpt lat="42.89346" lon="0.14488">
        <ele>2197</ele>
        <time>2015-05-10T08:24:02Z</time>
      </trkpt>
      <trkpt lat="42.89367" lon="0.14475">
        <ele>2194</ele>
        <time>2015-05-10T08:24:07Z</time>
      </trkpt>
      <trkpt lat="42.89377" lon="0.14457">
        <ele>2190</ele>
        <time>2015-05-10T08:24:11Z</time>
      </trkpt>
      <trkpt lat="42.89382" lon="0.14446">
        <ele>2189</ele>
        <time>2015-05-10T08:24:13Z</time>
      </trkpt>
      <trkpt lat="42.89394" lon="0.1443">
        <ele>2187</ele>
        <time>2015-05-10T08:24:17Z</time>
      </trkpt>
      <trkpt lat="42.89401" lon="0.14431">
        <ele>2184</ele>
        <time>2015-05-10T08:24:19Z</time>
      </trkpt>
      <trkpt lat="42.89411" lon="0.14441">
        <ele>2178</ele>
        <time>2015-05-10T08:24:22Z</time>
      </trkpt>
      <trkpt lat="42.89415" lon="0.14445">
        <ele>2176</ele>
        <time>2015-05-10T08:24:23Z</time>
      </trkpt>
      <trkpt lat="42.89419" lon="0.14447">
        <ele>2175</ele>
        <time>2015-05-10T08:24:24Z</time>
      </trkpt>
      <trkpt lat="42.89423" lon="0.14448">
        <ele>2173</ele>
        <time>2015-05-10T08:24:25Z</time>
      </trkpt>
      <trkpt lat="42.89429" lon="0.14445">
        <ele>2173</ele>
        <time>2015-05-10T08:24:26Z</time>
      </trkpt>
      <trkpt lat="42.8944" lon="0.14433">
        <ele>2171</ele>
        <time>2015-05-10T08:24:28Z</time>
      </trkpt>
      <trkpt lat="42.89456" lon="0.14427">
        <ele>2166</ele>
        <time>2015-05-10T08:24:31Z</time>
      </trkpt>
      <trkpt lat="42.89463" lon="0.14428">
        <ele>2165</ele>
        <time>2015-05-10T08:24:32Z</time>
      </trkpt>
      <trkpt lat="42.89474" lon="0.14429">
        <ele>2160</ele>
        <time>2015-05-10T08:24:34Z</time>
      </trkpt>
      <trkpt lat="42.8948" lon="0.14431">
        <ele>2158</ele>
        <time>2015-05-10T08:24:35Z</time>
      </trkpt>
      <trkpt lat="42.89483" lon="0.14432">
        <ele>2157</ele>
        <time>2015-05-10T08:24:36Z</time>
      </trkpt>
      <trkpt lat="42.89493" lon="0.14429">
        <ele>2156</ele>
        <time>2015-05-10T08:24:38Z</time>
      </trkpt>
      <trkpt lat="42.89519" lon="0.14427">
        <ele>2153</ele>
        <time>2015-05-10T08:24:43Z</time>
      </trkpt>
      <trkpt lat="42.89526" lon="0.14422">
        <ele>2153</ele>
        <time>2015-05-10T08:24:47Z</time>
      </trkpt>
      <trkpt lat="42.89528" lon="0.1442">
        <ele>2149</ele>
        <time>2015-05-10T08:24:50Z</time>
      </trkpt>
      <trkpt lat="42.89533" lon="0.14428">
        <ele>2144</ele>
        <time>2015-05-10T08:24:54Z</time>
      </trkpt>
      <trkpt lat="42.89533" lon="0.14434">
        <ele>2141</ele>
        <time>2015-05-10T08:24:55Z</time>
      </trkpt>
      <trkpt lat="42.89535" lon="0.14436">
        <ele>2140</ele>
        <time>2015-05-10T08:24:56Z</time>
      </trkpt>
      <trkpt lat="42.8954" lon="0.14435">
        <ele>2139</ele>
        <time>2015-05-10T08:24:57Z</time>
      </trkpt>
      <trkpt lat="42.89551" lon="0.14437">
        <ele>2134</ele>
        <time>2015-05-10T08:24:59Z</time>
      </trkpt>
      <trkpt lat="42.89564" lon="0.14444">
        <ele>2130</ele>
        <time>2015-05-10T08:25:02Z</time>
      </trkpt>
      <trkpt lat="42.89568" lon="0.14448">
        <ele>2127</ele>
        <time>2015-05-10T08:25:03Z</time>
      </trkpt>
      <trkpt lat="42.89572" lon="0.14453">
        <ele>2126</ele>
        <time>2015-05-10T08:25:04Z</time>
      </trkpt>
      <trkpt lat="42.89592" lon="0.1446">
        <ele>2124</ele>
        <time>2015-05-10T08:25:13Z</time>
      </trkpt>
      <trkpt lat="42.896" lon="0.14454">
        <ele>2122</ele>
        <time>2015-05-10T08:25:15Z</time>
      </trkpt>
      <trkpt lat="42.89608" lon="0.14434">
        <ele>2119</ele>
        <time>2015-05-10T08:25:18Z</time>
      </trkpt>
      <trkpt lat="42.89609" lon="0.144">
        <ele>2116</ele>
        <time>2015-05-10T08:25:25Z</time>
      </trkpt>
      <trkpt lat="42.89613" lon="0.14383">
        <ele>2114</ele>
        <time>2015-05-10T08:25:29Z</time>
      </trkpt>
      <trkpt lat="42.89617" lon="0.14374">
        <ele>2113</ele>
        <time>2015-05-10T08:25:31Z</time>
      </trkpt>
      <trkpt lat="42.89619" lon="0.14369">
        <ele>2113</ele>
        <time>2015-05-10T08:25:32Z</time>
      </trkpt>
      <trkpt lat="42.89623" lon="0.14367">
        <ele>2109</ele>
        <time>2015-05-10T08:25:35Z</time>
      </trkpt>
      <trkpt lat="42.89628" lon="0.14374">
        <ele>2108</ele>
        <time>2015-05-10T08:25:37Z</time>
      </trkpt>
      <trkpt lat="42.89636" lon="0.1438">
        <ele>2103</ele>
        <time>2015-05-10T08:25:39Z</time>
      </trkpt>
      <trkpt lat="42.89638" lon="0.14382">
        <ele>2100</ele>
        <time>2015-05-10T08:25:40Z</time>
      </trkpt>
      <trkpt lat="42.89641" lon="0.14385">
        <ele>2100</ele>
        <time>2015-05-10T08:25:41Z</time>
      </trkpt>
      <trkpt lat="42.89643" lon="0.14383">
        <ele>2098</ele>
        <time>2015-05-10T08:25:42Z</time>
      </trkpt>
      <trkpt lat="42.89646" lon="0.14384">
        <ele>2096</ele>
        <time>2015-05-10T08:25:43Z</time>
      </trkpt>
      <trkpt lat="42.89651" lon="0.14383">
        <ele>2094</ele>
        <time>2015-05-10T08:25:44Z</time>
      </trkpt>
      <trkpt lat="42.89654" lon="0.14384">
        <ele>2094</ele>
        <time>2015-05-10T08:25:45Z</time>
      </trkpt>
      <trkpt lat="42.89659" lon="0.1439">
        <ele>2091</ele>
        <time>2015-05-10T08:25:47Z</time>
      </trkpt>
      <trkpt lat="42.89662" lon="0.14392">
        <ele>2089</ele>
        <time>2015-05-10T08:25:48Z</time>
      </trkpt>
      <trkpt lat="42.89686" lon="0.14382">
        <ele>2086</ele>
        <time>2015-05-10T08:25:53Z</time>
      </trkpt>
      <trkpt lat="42.89698" lon="0.1435">
        <ele>2082</ele>
        <time>2015-05-10T08:26:02Z</time>
      </trkpt>
      <trkpt lat="42.897" lon="0.14345">
        <ele>2081</ele>
        <time>2015-05-10T08:26:03Z</time>
      </trkpt>
      <trkpt lat="42.89723" lon="0.14315">
        <ele>2078</ele>
        <time>2015-05-10T08:26:10Z</time>
      </trkpt>
      <trkpt lat="42.89737" lon="0.14296">
        <ele>2077</ele>
        <time>2015-05-10T08:26:20Z</time>
      </trkpt>
      <trkpt lat="42.89735" lon="0.14292">
        <ele>2078</ele>
        <time>2015-05-10T08:26:25Z</time>
      </trkpt>
      <trkpt lat="42.8974" lon="0.14287">
        <ele>2073</ele>
        <time>2015-05-10T08:26:30Z</time>
      </trkpt>
      <trkpt lat="42.89752" lon="0.14276">
        <ele>2070</ele>
        <time>2015-05-10T08:26:33Z</time>
      </trkpt>
      <trkpt lat="42.8977" lon="0.14262">
        <ele>2068</ele>
        <time>2015-05-10T08:26:36Z</time>
      </trkpt>
      <trkpt lat="42.89778" lon="0.14256">
        <ele>2068</ele>
        <time>2015-05-10T08:26:38Z</time>
      </trkpt>
      <trkpt lat="42.89788" lon="0.14253">
        <ele>2065</ele>
        <time>2015-05-10T08:26:41Z</time>
      </trkpt>
      <trkpt lat="42.89795" lon="0.14253">
        <ele>2062</ele>
        <time>2015-05-10T08:26:43Z</time>
      </trkpt>
      <trkpt lat="42.898" lon="0.14257">
        <ele>2058</ele>
        <time>2015-05-10T08:26:45Z</time>
      </trkpt>
      <trkpt lat="42.89804" lon="0.14258">
        <ele>2056</ele>
        <time>2015-05-10T08:26:46Z</time>
      </trkpt>
      <trkpt lat="42.89809" lon="0.14258">
        <ele>2055</ele>
        <time>2015-05-10T08:26:47Z</time>
      </trkpt>
      <trkpt lat="42.89813" lon="0.14258">
        <ele>2054</ele>
        <time>2015-05-10T08:26:48Z</time>
      </trkpt>
      <trkpt lat="42.89816" lon="0.14259">
        <ele>2053</ele>
        <time>2015-05-10T08:26:49Z</time>
      </trkpt>
      <trkpt lat="42.89826" lon="0.14261">
        <ele>2051</ele>
        <time>2015-05-10T08:26:51Z</time>
      </trkpt>
      <trkpt lat="42.89833" lon="0.14263">
        <ele>2050</ele>
        <time>2015-05-10T08:26:52Z</time>
      </trkpt>
      <trkpt lat="42.89834" lon="0.1427">
        <ele>2048</ele>
        <time>2015-05-10T08:26:53Z</time>
      </trkpt>
      <trkpt lat="42.89837" lon="0.14278">
        <ele>2048</ele>
        <time>2015-05-10T08:26:55Z</time>
      </trkpt>
      <trkpt lat="42.89849" lon="0.14284">
        <ele>2045</ele>
        <time>2015-05-10T08:26:58Z</time>
      </trkpt>
      <trkpt lat="42.89855" lon="0.14286">
        <ele>2044</ele>
        <time>2015-05-10T08:27:00Z</time>
      </trkpt>
      <trkpt lat="42.89864" lon="0.14308">
        <ele>2041</ele>
        <time>2015-05-10T08:27:06Z</time>
      </trkpt>
      <trkpt lat="42.89868" lon="0.14316">
        <ele>2041</ele>
        <time>2015-05-10T08:27:08Z</time>
      </trkpt>
      <trkpt lat="42.8987" lon="0.14319">
        <ele>2041</ele>
        <time>2015-05-10T08:27:09Z</time>
      </trkpt>
      <trkpt lat="42.89929" lon="0.14293">
        <ele>2040</ele>
        <time>2015-05-10T08:27:22Z</time>
      </trkpt>
      <trkpt lat="42.89964" lon="0.14286">
        <ele>2036</ele>
        <time>2015-05-10T08:27:31Z</time>
      </trkpt>
      <trkpt lat="42.89967" lon="0.14287">
        <ele>2035</ele>
        <time>2015-05-10T08:27:33Z</time>
      </trkpt>
      <trkpt lat="42.89972" lon="0.14279">
        <ele>2030</ele>
        <time>2015-05-10T08:27:36Z</time>
      </trkpt>
      <trkpt lat="42.89978" lon="0.14274">
        <ele>2028</ele>
        <time>2015-05-10T08:27:38Z</time>
      </trkpt>
      <trkpt lat="42.89988" lon="0.14265">
        <ele>2026</ele>
        <time>2015-05-10T08:27:41Z</time>
      </trkpt>
      <trkpt lat="42.89996" lon="0.14245">
        <ele>2021</ele>
        <time>2015-05-10T08:27:44Z</time>
      </trkpt>
      <trkpt lat="42.89997" lon="0.14239">
        <ele>2021</ele>
        <time>2015-05-10T08:27:45Z</time>
      </trkpt>
      <trkpt lat="42.89993" lon="0.1423">
        <ele>2020</ele>
        <time>2015-05-10T08:27:46Z</time>
      </trkpt>
      <trkpt lat="42.8999" lon="0.1422">
        <ele>2019</ele>
        <time>2015-05-10T08:27:48Z</time>
      </trkpt>
      <trkpt lat="42.89989" lon="0.14214">
        <ele>2018</ele>
        <time>2015-05-10T08:27:49Z</time>
      </trkpt>
      <trkpt lat="42.8999" lon="0.14209">
        <ele>2018</ele>
        <time>2015-05-10T08:27:50Z</time>
      </trkpt>
      <trkpt lat="42.8999" lon="0.14203">
        <ele>2018</ele>
        <time>2015-05-10T08:27:51Z</time>
      </trkpt>
      <trkpt lat="42.89993" lon="0.14189">
        <ele>2017</ele>
        <time>2015-05-10T08:27:53Z</time>
      </trkpt>
      <trkpt lat="42.89996" lon="0.14177">
        <ele>2016</ele>
        <time>2015-05-10T08:27:54Z</time>
      </trkpt>
      <trkpt lat="42.90014" lon="0.1416">
        <ele>2015</ele>
        <time>2015-05-10T08:27:59Z</time>
      </trkpt>
      <trkpt lat="42.90032" lon="0.14141">
        <ele>2011</ele>
        <time>2015-05-10T08:28:04Z</time>
      </trkpt>
      <trkpt lat="42.90036" lon="0.14136">
        <ele>2010</ele>
        <time>2015-05-10T08:28:05Z</time>
      </trkpt>
      <trkpt lat="42.90051" lon="0.14116">
        <ele>2007</ele>
        <time>2015-05-10T08:28:09Z</time>
      </trkpt>
      <trkpt lat="42.90056" lon="0.14111">
        <ele>2006</ele>
        <time>2015-05-10T08:28:10Z</time>
      </trkpt>
      <trkpt lat="42.9006" lon="0.14106">
        <ele>2007</ele>
        <time>2015-05-10T08:28:11Z</time>
      </trkpt>
      <trkpt lat="42.9009" lon="0.14084">
        <ele>2005</ele>
        <time>2015-05-10T08:28:17Z</time>
      </trkpt>
      <trkpt lat="42.90092" lon="0.14082">
        <ele>2004</ele>
        <time>2015-05-10T08:28:18Z</time>
      </trkpt>
      <trkpt lat="42.90112" lon="0.14063">
        <ele>2002</ele>
        <time>2015-05-10T08:28:30Z</time>
      </trkpt>
      <trkpt lat="42.90111" lon="0.14045">
        <ele>2002</ele>
        <time>2015-05-10T08:28:49Z</time>
      </trkpt>
      <trkpt lat="42.90108" lon="0.14034">
        <ele>2002</ele>
        <time>2015-05-10T08:29:00Z</time>
      </trkpt>
      <trkpt lat="42.90114" lon="0.14039">
        <ele>1998</ele>
        <time>2015-05-10T08:29:03Z</time>
      </trkpt>
      <trkpt lat="42.90128" lon="0.14032">
        <ele>1992</ele>
        <time>2015-05-10T08:29:07Z</time>
      </trkpt>
      <trkpt lat="42.90138" lon="0.14011">
        <ele>1990</ele>
        <time>2015-05-10T08:29:12Z</time>
      </trkpt>
      <trkpt lat="42.90148" lon="0.13987">
        <ele>1989</ele>
        <time>2015-05-10T08:29:17Z</time>
      </trkpt>
      <trkpt lat="42.90156" lon="0.13981">
        <ele>1983</ele>
        <time>2015-05-10T08:29:20Z</time>
      </trkpt>
      <trkpt lat="42.90163" lon="0.13984">
        <ele>1981</ele>
        <time>2015-05-10T08:29:22Z</time>
      </trkpt>
      <trkpt lat="42.90166" lon="0.13985">
        <ele>1979</ele>
        <time>2015-05-10T08:29:23Z</time>
      </trkpt>
      <trkpt lat="42.90171" lon="0.13983">
        <ele>1977</ele>
        <time>2015-05-10T08:29:24Z</time>
      </trkpt>
      <trkpt lat="42.90174" lon="0.13982">
        <ele>1975</ele>
        <time>2015-05-10T08:29:25Z</time>
      </trkpt>
      <trkpt lat="42.90185" lon="0.13983">
        <ele>1971</ele>
        <time>2015-05-10T08:29:27Z</time>
      </trkpt>
      <trkpt lat="42.90193" lon="0.13984">
        <ele>1968</ele>
        <time>2015-05-10T08:29:29Z</time>
      </trkpt>
      <trkpt lat="42.90202" lon="0.13983">
        <ele>1965</ele>
        <time>2015-05-10T08:29:31Z</time>
      </trkpt>
      <trkpt lat="42.90208" lon="0.13984">
        <ele>1963</ele>
        <time>2015-05-10T08:29:32Z</time>
      </trkpt>
      <trkpt lat="42.90216" lon="0.13989">
        <ele>1959</ele>
        <time>2015-05-10T08:29:34Z</time>
      </trkpt>
      <trkpt lat="42.90223" lon="0.13991">
        <ele>1957</ele>
        <time>2015-05-10T08:29:36Z</time>
      </trkpt>
      <trkpt lat="42.90235" lon="0.13989">
        <ele>1952</ele>
        <time>2015-05-10T08:29:40Z</time>
      </trkpt>
      <trkpt lat="42.90243" lon="0.13985">
        <ele>1948</ele>
        <time>2015-05-10T08:29:42Z</time>
      </trkpt>
      <trkpt lat="42.90249" lon="0.13981">
        <ele>1946</ele>
        <time>2015-05-10T08:29:43Z</time>
      </trkpt>
      <trkpt lat="42.90286" lon="0.13899">
        <ele>1942</ele>
        <time>2015-05-10T08:29:53Z</time>
      </trkpt>
      <trkpt lat="42.90289" lon="0.1389">
        <ele>1942</ele>
        <time>2015-05-10T08:29:56Z</time>
      </trkpt>
      <trkpt lat="42.90288" lon="0.13887">
        <ele>1939</ele>
        <time>2015-05-10T08:30:02Z</time>
      </trkpt>
      <trkpt lat="42.90289" lon="0.1389">
        <ele>1937</ele>
        <time>2015-05-10T08:30:04Z</time>
      </trkpt>
      <trkpt lat="42.90291" lon="0.13893">
        <ele>1936</ele>
        <time>2015-05-10T08:30:05Z</time>
      </trkpt>
      <trkpt lat="42.90293" lon="0.13897">
        <ele>1935</ele>
        <time>2015-05-10T08:30:06Z</time>
      </trkpt>
      <trkpt lat="42.90299" lon="0.13898">
        <ele>1931</ele>
        <time>2015-05-10T08:30:09Z</time>
      </trkpt>
      <trkpt lat="42.90303" lon="0.13895">
        <ele>1929</ele>
        <time>2015-05-10T08:30:11Z</time>
      </trkpt>
      <trkpt lat="42.90298" lon="0.13883">
        <ele>1929</ele>
        <time>2015-05-10T08:30:19Z</time>
      </trkpt>
      <trkpt lat="42.90297" lon="0.13877">
        <ele>1927</ele>
        <time>2015-05-10T08:30:22Z</time>
      </trkpt>
      <trkpt lat="42.90295" lon="0.13858">
        <ele>1925</ele>
        <time>2015-05-10T08:30:26Z</time>
      </trkpt>
      <trkpt lat="42.90298" lon="0.13852">
        <ele>1922</ele>
        <time>2015-05-10T08:30:28Z</time>
      </trkpt>
      <trkpt lat="42.90302" lon="0.13844">
        <ele>1918</ele>
        <time>2015-05-10T08:30:30Z</time>
      </trkpt>
      <trkpt lat="42.90307" lon="0.13834">
        <ele>1915</ele>
        <time>2015-05-10T08:30:32Z</time>
      </trkpt>
      <trkpt lat="42.90311" lon="0.13814">
        <ele>1913</ele>
        <time>2015-05-10T08:30:35Z</time>
      </trkpt>
      <trkpt lat="42.90313" lon="0.13801">
        <ele>1910</ele>
        <time>2015-05-10T08:30:37Z</time>
      </trkpt>
      <trkpt lat="42.90327" lon="0.1377">
        <ele>1905</ele>
        <time>2015-05-10T08:30:43Z</time>
      </trkpt>
      <trkpt lat="42.90328" lon="0.13758">
        <ele>1904</ele>
        <time>2015-05-10T08:30:45Z</time>
      </trkpt>
      <trkpt lat="42.90317" lon="0.1371">
        <ele>1903</ele>
        <time>2015-05-10T08:30:55Z</time>
      </trkpt>
      <trkpt lat="42.90317" lon="0.13707">
        <ele>1902</ele>
        <time>2015-05-10T08:30:56Z</time>
      </trkpt>
      <trkpt lat="42.90322" lon="0.13692">
        <ele>1899</ele>
        <time>2015-05-10T08:31:04Z</time>
      </trkpt>
      <trkpt lat="42.90321" lon="0.1369">
        <ele>1898</ele>
        <time>2015-05-10T08:31:18Z</time>
      </trkpt>
      <trkpt lat="42.90325" lon="0.13695">
        <ele>1898</ele>
        <time>2015-05-10T08:31:40Z</time>
      </trkpt>
      <trkpt lat="42.90325" lon="0.13694">
        <ele>1898</ele>
        <time>2015-05-10T08:31:41Z</time>
      </trkpt>
      <trkpt lat="42.90331" lon="0.13681">
        <ele>1894</ele>
        <time>2015-05-10T08:31:55Z</time>
      </trkpt>
      <trkpt lat="42.90331" lon="0.1368">
        <ele>1894</ele>
        <time>2015-05-10T08:31:56Z</time>
      </trkpt>
      <trkpt lat="42.90327" lon="0.13672">
        <ele>1891</ele>
        <time>2015-05-10T08:32:11Z</time>
      </trkpt>
      <trkpt lat="42.90327" lon="0.13655">
        <ele>1889</ele>
        <time>2015-05-10T08:32:31Z</time>
      </trkpt>
      <trkpt lat="42.90326" lon="0.13642">
        <ele>1887</ele>
        <time>2015-05-10T08:32:50Z</time>
      </trkpt>
      <trkpt lat="42.90324" lon="0.13636">
        <ele>1886</ele>
        <time>2015-05-10T08:32:58Z</time>
      </trkpt>
      <trkpt lat="42.90324" lon="0.13632">
        <ele>1885</ele>
        <time>2015-05-10T08:33:05Z</time>
      </trkpt>
      <trkpt lat="42.90327" lon="0.13628">
        <ele>1885</ele>
        <time>2015-05-10T08:33:21Z</time>
      </trkpt>
      <trkpt lat="42.90326" lon="0.13627">
        <ele>1885</ele>
        <time>2015-05-10T08:33:22Z</time>
      </trkpt>
      <trkpt lat="42.90321" lon="0.13605">
        <ele>1882</ele>
        <time>2015-05-10T08:33:44Z</time>
      </trkpt>
      <trkpt lat="42.90326" lon="0.13606">
        <ele>1880</ele>
        <time>2015-05-10T08:34:00Z</time>
      </trkpt>
      <trkpt lat="42.90311" lon="0.13525">
        <ele>1881</ele>
        <time>2015-05-10T08:34:30Z</time>
      </trkpt>
      <trkpt lat="42.90301" lon="0.13525">
        <ele>1878</ele>
        <time>2015-05-10T08:34:47Z</time>
      </trkpt>
      <trkpt lat="42.903" lon="0.13525">
        <ele>1882</ele>
        <time>2015-05-10T08:34:48Z</time>
      </trkpt>
      <trkpt lat="42.90297" lon="0.13521">
        <ele>1881</ele>
        <time>2015-05-10T08:34:53Z</time>
      </trkpt>
      <trkpt lat="42.90297" lon="0.13512">
        <ele>1879</ele>
        <time>2015-05-10T08:34:56Z</time>
      </trkpt>
      <trkpt lat="42.90309" lon="0.13473">
        <ele>1876</ele>
        <time>2015-05-10T08:35:03Z</time>
      </trkpt>
      <trkpt lat="42.90321" lon="0.1345">
        <ele>1873</ele>
        <time>2015-05-10T08:35:07Z</time>
      </trkpt>
      <trkpt lat="42.90336" lon="0.13427">
        <ele>1870</ele>
        <time>2015-05-10T08:35:14Z</time>
      </trkpt>
      <trkpt lat="42.90343" lon="0.13416">
        <ele>1867</ele>
        <time>2015-05-10T08:35:18Z</time>
      </trkpt>
      <trkpt lat="42.90352" lon="0.13393">
        <ele>1863</ele>
        <time>2015-05-10T08:35:24Z</time>
      </trkpt>
      <trkpt lat="42.90354" lon="0.13389">
        <ele>1862</ele>
        <time>2015-05-10T08:35:25Z</time>
      </trkpt>
      <trkpt lat="42.90365" lon="0.13367">
        <ele>1859</ele>
        <time>2015-05-10T08:35:29Z</time>
      </trkpt>
      <trkpt lat="42.90374" lon="0.13345">
        <ele>1855</ele>
        <time>2015-05-10T08:35:33Z</time>
      </trkpt>
      <trkpt lat="42.90381" lon="0.13321">
        <ele>1853</ele>
        <time>2015-05-10T08:35:38Z</time>
      </trkpt>
      <trkpt lat="42.90383" lon="0.13301">
        <ele>1849</ele>
        <time>2015-05-10T08:35:42Z</time>
      </trkpt>
      <trkpt lat="42.90386" lon="0.1329">
        <ele>1847</ele>
        <time>2015-05-10T08:35:44Z</time>
      </trkpt>
      <trkpt lat="42.90396" lon="0.13291">
        <ele>1842</ele>
        <time>2015-05-10T08:35:48Z</time>
      </trkpt>
      <trkpt lat="42.90403" lon="0.13296">
        <ele>1840</ele>
        <time>2015-05-10T08:35:49Z</time>
      </trkpt>
      <trkpt lat="42.90406" lon="0.13296">
        <ele>1838</ele>
        <time>2015-05-10T08:35:50Z</time>
      </trkpt>
      <trkpt lat="42.90408" lon="0.13296">
        <ele>1837</ele>
        <time>2015-05-10T08:35:51Z</time>
      </trkpt>
      <trkpt lat="42.90413" lon="0.13293">
        <ele>1837</ele>
        <time>2015-05-10T08:35:52Z</time>
      </trkpt>
      <trkpt lat="42.90421" lon="0.1329">
        <ele>1833</ele>
        <time>2015-05-10T08:35:53Z</time>
      </trkpt>
      <trkpt lat="42.90429" lon="0.1329">
        <ele>1829</ele>
        <time>2015-05-10T08:35:55Z</time>
      </trkpt>
      <trkpt lat="42.90442" lon="0.13283">
        <ele>1825</ele>
        <time>2015-05-10T08:35:58Z</time>
      </trkpt>
      <trkpt lat="42.90453" lon="0.1328">
        <ele>1819</ele>
        <time>2015-05-10T08:36:01Z</time>
      </trkpt>
      <trkpt lat="42.90457" lon="0.1328">
        <ele>1817</ele>
        <time>2015-05-10T08:36:02Z</time>
      </trkpt>
      <trkpt lat="42.90461" lon="0.13277">
        <ele>1817</ele>
        <time>2015-05-10T08:36:03Z</time>
      </trkpt>
      <trkpt lat="42.90468" lon="0.13268">
        <ele>1811</ele>
        <time>2015-05-10T08:36:06Z</time>
      </trkpt>
      <trkpt lat="42.90471" lon="0.13268">
        <ele>1810</ele>
        <time>2015-05-10T08:36:07Z</time>
      </trkpt>
      <trkpt lat="42.90474" lon="0.13269">
        <ele>1806</ele>
        <time>2015-05-10T08:36:08Z</time>
      </trkpt>
      <trkpt lat="42.90477" lon="0.13269">
        <ele>1804</ele>
        <time>2015-05-10T08:36:09Z</time>
      </trkpt>
      <trkpt lat="42.9048" lon="0.1327">
        <ele>1803</ele>
        <time>2015-05-10T08:36:10Z</time>
      </trkpt>
      <trkpt lat="42.90489" lon="0.13255">
        <ele>1799</ele>
        <time>2015-05-10T08:36:13Z</time>
      </trkpt>
      <trkpt lat="42.90494" lon="0.13251">
        <ele>1795</ele>
        <time>2015-05-10T08:36:15Z</time>
      </trkpt>
      <trkpt lat="42.90496" lon="0.13249">
        <ele>1792</ele>
        <time>2015-05-10T08:36:16Z</time>
      </trkpt>
      <trkpt lat="42.90501" lon="0.13244">
        <ele>1790</ele>
        <time>2015-05-10T08:36:17Z</time>
      </trkpt>
      <trkpt lat="42.90505" lon="0.13236">
        <ele>1788</ele>
        <time>2015-05-10T08:36:19Z</time>
      </trkpt>
      <trkpt lat="42.90509" lon="0.13227">
        <ele>1786</ele>
        <time>2015-05-10T08:36:21Z</time>
      </trkpt>
      <trkpt lat="42.90513" lon="0.13219">
        <ele>1783</ele>
        <time>2015-05-10T08:36:23Z</time>
      </trkpt>
      <trkpt lat="42.90518" lon="0.13209">
        <ele>1779</ele>
        <time>2015-05-10T08:36:25Z</time>
      </trkpt>
      <trkpt lat="42.9053" lon="0.13188">
        <ele>1776</ele>
        <time>2015-05-10T08:36:28Z</time>
      </trkpt>
      <trkpt lat="42.9057" lon="0.13128">
        <ele>1774</ele>
        <time>2015-05-10T08:36:39Z</time>
      </trkpt>
      <trkpt lat="42.90575" lon="0.13113">
        <ele>1776</ele>
        <time>2015-05-10T08:36:50Z</time>
      </trkpt>
      <trkpt lat="42.90574" lon="0.131">
        <ele>1777</ele>
        <time>2015-05-10T08:37:10Z</time>
      </trkpt>
      <trkpt lat="42.90574" lon="0.13095">
        <ele>1778</ele>
        <time>2015-05-10T08:37:19Z</time>
      </trkpt>
      <trkpt lat="42.90573" lon="0.13087">
        <ele>1779</ele>
        <time>2015-05-10T08:37:38Z</time>
      </trkpt>
      <trkpt lat="42.90572" lon="0.13081">
        <ele>1780</ele>
        <time>2015-05-10T08:37:54Z</time>
      </trkpt>
      <trkpt lat="42.90567" lon="0.13084">
        <ele>1779</ele>
        <time>2015-05-10T08:38:16Z</time>
      </trkpt>
      <trkpt lat="42.90568" lon="0.13082">
        <ele>1780</ele>
        <time>2015-05-10T08:38:32Z</time>
      </trkpt>
      <trkpt lat="42.90571" lon="0.13057">
        <ele>1780</ele>
        <time>2015-05-10T08:38:49Z</time>
      </trkpt>
      <trkpt lat="42.90574" lon="0.13055">
        <ele>1781</ele>
        <time>2015-05-10T08:39:04Z</time>
      </trkpt>
      <trkpt lat="42.90577" lon="0.13054">
        <ele>1781</ele>
        <time>2015-05-10T08:39:22Z</time>
      </trkpt>
      <trkpt lat="42.90574" lon="0.13054">
        <ele>1781</ele>
        <time>2015-05-10T08:39:41Z</time>
      </trkpt>
      <trkpt lat="42.90574" lon="0.13053">
        <ele>1780</ele>
        <time>2015-05-10T08:40:00Z</time>
      </trkpt>
      <trkpt lat="42.90573" lon="0.13051">
        <ele>1781</ele>
        <time>2015-05-10T08:40:20Z</time>
      </trkpt>
      <trkpt lat="42.90579" lon="0.13059">
        <ele>1780</ele>
        <time>2015-05-10T08:40:42Z</time>
      </trkpt>
      <trkpt lat="42.90577" lon="0.13055">
        <ele>1780</ele>
        <time>2015-05-10T08:41:02Z</time>
      </trkpt>
      <trkpt lat="42.90575" lon="0.13059">
        <ele>1780</ele>
        <time>2015-05-10T08:41:23Z</time>
      </trkpt>
      <trkpt lat="42.90575" lon="0.13058">
        <ele>1780</ele>
        <time>2015-05-10T08:41:42Z</time>
      </trkpt>
      <trkpt lat="42.9057" lon="0.13055">
        <ele>1780</ele>
        <time>2015-05-10T08:42:16Z</time>
      </trkpt>
      <trkpt lat="42.90573" lon="0.1306">
        <ele>1780</ele>
        <time>2015-05-10T08:42:29Z</time>
      </trkpt>
      <trkpt lat="42.90573" lon="0.13066">
        <ele>1780</ele>
        <time>2015-05-10T08:42:49Z</time>
      </trkpt>
      <trkpt lat="42.90571" lon="0.13066">
        <ele>1780</ele>
        <time>2015-05-10T08:43:02Z</time>
      </trkpt>
    </trkseg>
  </trk>
</gpx>